Observation data for Odell on 08/14/2019      Previous  Date  Next       Current Mesonet Observations  Soil Data  Daily Summary Page  Observations in Plain Language
KOD1 140500Z 04005KT 25/21 A3005 RMK A01 T02520205  RH  075%=      5-min Rain = 0
KOD1 140501Z 04005KT 25/21 A3005 RMK A01 T02520205  RH  075%=      5-min Rain = 0
KOD1 140502Z 04005KT 25/20 A3005 RMK A01 T02520204  RH  075%=      5-min Rain = 0
KOD1 140503Z 04004KT 25/20 A3005 RMK A01 T02520204  RH  075%=      5-min Rain = 0
KOD1 140504Z 04004KT 25/21 A3005 RMK A01 T02520205  RH  075%=      5-min Rain = 0
KOD1 140505Z 04004KT 25/21 A3005 RMK A01 T02520205  RH  075%=      5-min Rain = 0
KOD1 140506Z 04004KT 25/20 A3005 RMK A01 T02530204  RH  074%=      5-min Rain = 0
KOD1 140507Z 04004KT 25/20 A3005 RMK A01 T02540204  RH  074%=      5-min Rain = 0
KOD1 140508Z 04004KT 25/20 A3005 RMK A01 T02540204  RH  074%=      5-min Rain = 0
KOD1 140509Z 05004KT 26/20 A3005 RMK A01 T02550203  RH  073%=      5-min Rain = 0
KOD1 140510Z 05004KT 26/20 A3005 RMK A01 T02550203  RH  073%=      5-min Rain = 0
KOD1 140528Z 03005KT 26/20 A3006 RMK A01 T02600200  RH  069%=      5-min Rain = 0
KOD1 140529Z 03005KT 26/20 A3006 RMK A01 T02600200  RH  070%=      5-min Rain = 0
KOD1 140530Z 03005KT 26/20 A3006 RMK A01 T02600201  RH  070%=      5-min Rain = 0
KOD1 140531Z 03005KT 26/20 A3006 RMK A01 T02600201  RH  070%=      5-min Rain = 0
KOD1 140532Z 03005KT 26/20 A3006 RMK A01 T02600201  RH  070%=      5-min Rain = 0
KOD1 140533Z 03005KT 26/20 A3006 RMK A01 T02600201  RH  070%=      5-min Rain = 0
KOD1 140534Z 03005KT 26/20 A3006 RMK A01 T02600201  RH  070%=      5-min Rain = 0
KOD1 140535Z 03005KT 26/20 A3006 RMK A01 T02600201  RH  070%=      5-min Rain = 0
KOD1 140536Z 04005KT 26/20 A3006 RMK A01 T02600200  RH  070%=      5-min Rain = 0
KOD1 140537Z 04004KT 26/20 A3006 RMK A01 T02590201  RH  070%=      5-min Rain = 0
KOD1 140538Z 04005KT 26/20 A3006 RMK A01 T02590201  RH  070%=      5-min Rain = 0
KOD1 140539Z 05004KT 26/20 A3005 RMK A01 T02590201  RH  070%=      5-min Rain = 0
KOD1 140540Z 05005KT 26/20 A3005 RMK A01 T02590200  RH  070%=      5-min Rain = 0
KOD1 140541Z 05005KT 26/20 A3005 RMK A01 T02590200  RH  070%=      5-min Rain = 0
KOD1 140542Z 06005KT 26/20 A3005 RMK A01 T02590200  RH  070%=      5-min Rain = 0
KOD1 140543Z 06005KT 26/20 A3005 RMK A01 T02590200  RH  070%=      5-min Rain = 0
KOD1 140544Z 06004KT 26/20 A3005 RMK A01 T02590199  RH  070%=      5-min Rain = 0
KOD1 140545Z 06005KT 26/20 A3005 RMK A01 T02590198  RH  069%=      5-min Rain = 0
KOD1 140546Z 06005KT 26/20 A3005 RMK A01 T02600197  RH  068%=      5-min Rain = 0
KOD1 140547Z 06005KT 26/20 A3005 RMK A01 T02600197  RH  068%=      5-min Rain = 0
KOD1 140548Z 06005KT 26/20 A3005 RMK A01 T02610197  RH  068%=      5-min Rain = 0
KOD1 140549Z 06005KT 26/20 A3005 RMK A01 T02610197  RH  068%=      5-min Rain = 0
KOD1 140550Z 06005KT 26/20 A3005 RMK A01 T02610197  RH  068%=      5-min Rain = 0
KOD1 140551Z 05005KT 26/20 A3005 RMK A01 T02600198  RH  069%=      5-min Rain = 0
KOD1 140552Z 05005KT 26/20 A3005 RMK A01 T02600199  RH  069%=      5-min Rain = 0
KOD1 140553Z 05006KT 26/20 A3006 RMK A01 T02590199  RH  070%=      5-min Rain = 0
KOD1 140554Z 04006KT 26/20 A3006 RMK A01 T02580199  RH  070%=      5-min Rain = 0
KOD1 140555Z 04006KT 26/20 A3006 RMK A01 T02580199  RH  070%=      5-min Rain = 0
KOD1 140556Z 04006KT 26/20 A3006 RMK A01 T02580199  RH  070%=      5-min Rain = 0
KOD1 140557Z 04005KT 26/20 A3006 RMK A01 T02580199  RH  070%=      5-min Rain = 0
KOD1 140558Z 03005KT 26/20 A3006 RMK A01 T02580199  RH  070%=      5-min Rain = 0
KOD1 140559Z 03006KT 26/20 A3006 RMK A01 T02580199  RH  070%=      5-min Rain = 0
KOD1 140600Z 03006KT 26/20 A3006 RMK A01 T02590199  RH  070%=      5-min Rain = 0
KOD1 140601Z 03006KT 26/20 A3006 RMK A01 T02590199  RH  069%=      5-min Rain = 0
KOD1 140602Z 03006KT 26/20 A3006 RMK A01 T02590199  RH  069%=      5-min Rain = 0
KOD1 140603Z 02006KT 26/20 A3006 RMK A01 T02600199  RH  069%=      5-min Rain = 0
KOD1 140604Z 02007KT 26/20 A3006 RMK A01 T02600198  RH  069%=      5-min Rain = 0
KOD1 140605Z 02008KT 26/20 A3006 RMK A01 T02610198  RH  068%=      5-min Rain = 0
KOD1 140606Z 01008KT 26/20 A3007 RMK A01 T02620197  RH  067%=      5-min Rain = 0
KOD1 140607Z 01007KT 26/20 A3007 RMK A01 T02620197  RH  067%=      5-min Rain = 0
KOD1 140608Z 01007KT 26/20 A3007 RMK A01 T02620197  RH  067%=      5-min Rain = 0
KOD1 140609Z 01008KT 26/20 A3007 RMK A01 T02620198  RH  068%=      5-min Rain = 0
KOD1 140610Z 01008KT 26/20 A3007 RMK A01 T02620199  RH  068%=      5-min Rain = 0
KOD1 140611Z 01009KT 26/20 A3007 RMK A01 T02620200  RH  069%=      5-min Rain = 0
KOD1 140612Z 00008KT 26/20 A3007 RMK A01 T02620200  RH  069%=      5-min Rain = 0
KOD1 140613Z 00008KT 26/20 A3007 RMK A01 T02610200  RH  069%=      5-min Rain = 0
KOD1 140614Z 00009KT 26/20 A3007 RMK A01 T02610201  RH  069%=      5-min Rain = 0
KOD1 140615Z 01008KT 26/20 A3007 RMK A01 T02610201  RH  069%=      5-min Rain = 0
KOD1 140616Z 01010KT 26/20 A3007 RMK A01 T02610201  RH  069%=      5-min Rain = 0
KOD1 140617Z 01009KT 26/20 A3007 RMK A01 T02610201  RH  069%=      5-min Rain = 0
KOD1 140618Z 01008KT 26/20 A3007 RMK A01 T02610201  RH  069%=      5-min Rain = 0
KOD1 140619Z 01008KT 26/20 A3007 RMK A01 T02610201  RH  069%=      5-min Rain = 0
KOD1 140620Z 01008KT 26/20 A3007 RMK A01 T02610201  RH  069%=      5-min Rain = 0
KOD1 140621Z 01008KT 26/20 A3007 RMK A01 T02610200  RH  069%=      5-min Rain = 0
KOD1 140622Z 01008KT 26/20 A3007 RMK A01 T02610200  RH  069%=      5-min Rain = 0
KOD1 140623Z 01007KT 26/20 A3006 RMK A01 T02610200  RH  069%=      5-min Rain = 0
KOD1 140624Z 02008KT 26/20 A3006 RMK A01 T02610200  RH  069%=      5-min Rain = 0
KOD1 140625Z 01007KT 26/20 A3006 RMK A01 T02610200  RH  069%=      5-min Rain = 0
KOD1 140626Z 01008KT 26/20 A3006 RMK A01 T02610200  RH  069%=      5-min Rain = 0
KOD1 140627Z 02007KT 26/20 A3006 RMK A01 T02610199  RH  069%=      5-min Rain = 0
KOD1 140628Z 01007KT 26/20 A3006 RMK A01 T02610199  RH  069%=      5-min Rain = 0
KOD1 140629Z 01007KT 26/20 A3007 RMK A01 T02620200  RH  069%=      5-min Rain = 0
KOD1 140630Z 01007KT 26/20 A3007 RMK A01 T02610200  RH  069%=      5-min Rain = 0
KOD1 140631Z 01006KT 26/20 A3007 RMK A01 T02610200  RH  069%=      5-min Rain = 0
KOD1 140632Z 01006KT 26/20 A3006 RMK A01 T02610199  RH  069%=      5-min Rain = 0
KOD1 140633Z 01006KT 26/20 A3006 RMK A01 T02610199  RH  069%=      5-min Rain = 0
KOD1 140634Z 01006KT 26/20 A3006 RMK A01 T02610199  RH  069%=      5-min Rain = 0
KOD1 140635Z 02007KT 26/20 A3006 RMK A01 T02610199  RH  068%=      5-min Rain = 0
KOD1 140636Z 02006KT 26/20 A3006 RMK A01 T02610198  RH  068%=      5-min Rain = 0
KOD1 140637Z 02006KT 26/20 A3006 RMK A01 T02610198  RH  068%=      5-min Rain = 0
KOD1 140638Z 02006KT 26/20 A3006 RMK A01 T02610198  RH  068%=      5-min Rain = 0
KOD1 140639Z 03006KT 26/20 A3006 RMK A01 T02610198  RH  068%=      5-min Rain = 0
KOD1 140640Z 03006KT 26/20 A3006 RMK A01 T02610198  RH  068%=      5-min Rain = 0
KOD1 140641Z 03006KT 26/20 A3006 RMK A01 T02610198  RH  068%=      5-min Rain = 0
KOD1 140642Z 03006KT 26/20 A3006 RMK A01 T02600199  RH  069%=      5-min Rain = 0
KOD1 140643Z 03006KT 26/20 A3006 RMK A01 T02600198  RH  069%=      5-min Rain = 0
KOD1 140644Z 03007KT 26/20 A3006 RMK A01 T02590198  RH  069%=      5-min Rain = 0
KOD1 140645Z 03007KT 26/20 A3005 RMK A01 T02590198  RH  069%=      5-min Rain = 0
KOD1 140646Z 03007KT 26/20 A3005 RMK A01 T02590198  RH  069%=      5-min Rain = 0
KOD1 140647Z 03007KT 26/20 A3005 RMK A01 T02580198  RH  069%=      5-min Rain = 0
KOD1 140648Z 03007KT 26/20 A3005 RMK A01 T02580198  RH  069%=      5-min Rain = 0
KOD1 140649Z 03008KT 26/20 A3006 RMK A01 T02570197  RH  069%=      5-min Rain = 0
KOD1 140650Z 03007KT 26/20 A3006 RMK A01 T02570198  RH  069%=      5-min Rain = 0
KOD1 140651Z 03007KT 26/20 A3006 RMK A01 T02570197  RH  070%=      5-min Rain = 0
KOD1 140652Z 03008KT 26/20 A3006 RMK A01 T02570197  RH  070%=      5-min Rain = 0
KOD1 140653Z 03007KT 26/20 A3006 RMK A01 T02570197  RH  070%=      5-min Rain = 0
KOD1 140654Z 03005KT 26/20 A3006 RMK A01 T02570197  RH  070%=      5-min Rain = 0
KOD1 140655Z 03006KT 26/20 A3006 RMK A01 T02570198  RH  070%=      5-min Rain = 0
KOD1 140656Z 03006KT 26/20 A3006 RMK A01 T02570198  RH  070%=      5-min Rain = 0
KOD1 140657Z 03005KT 26/20 A3006 RMK A01 T02570198  RH  070%=      5-min Rain = 0
KOD1 140658Z 04004KT 26/20 A3006 RMK A01 T02570197  RH  070%=      5-min Rain = 0
KOD1 140659Z 04004KT 26/20 A3006 RMK A01 T02570198  RH  070%=      5-min Rain = 0
KOD1 140700Z 04004KT 26/20 A3007 RMK A01 T02570197  RH  070%=      5-min Rain = 0
KOD1 140701Z 04004KT 26/20 A3007 RMK A01 T02570197  RH  069%=      5-min Rain = 0
KOD1 140702Z 04003KT 26/20 A3007 RMK A01 T02570197  RH  069%=      5-min Rain = 0
KOD1 140703Z 05004KT 26/20 A3007 RMK A01 T02580197  RH  069%=      5-min Rain = 0
KOD1 140704Z 04003KT 26/20 A3007 RMK A01 T02570198  RH  069%=      5-min Rain = 0
KOD1 140705Z 04003KT 26/20 A3007 RMK A01 T02580198  RH  070%=      5-min Rain = 0
KOD1 140706Z 04004KT 26/20 A3007 RMK A01 T02570198  RH  070%=      5-min Rain = 0
KOD1 140707Z 04003KT 26/20 A3007 RMK A01 T02570198  RH  070%=      5-min Rain = 0
KOD1 140708Z 04004KT 26/20 A3007 RMK A01 T02580198  RH  069%=      5-min Rain = 0
KOD1 140709Z 04003KT 26/20 A3007 RMK A01 T02580197  RH  069%=      5-min Rain = 0
KOD1 140710Z 04004KT 26/20 A3007 RMK A01 T02580197  RH  069%=      5-min Rain = 0
KOD1 140711Z 05003KT 26/20 A3007 RMK A01 T02590197  RH  069%=      5-min Rain = 0
KOD1 140712Z 04004KT 26/20 A3007 RMK A01 T02590196  RH  068%=      5-min Rain = 0
KOD1 140713Z 05004KT 26/20 A3007 RMK A01 T02590196  RH  068%=      5-min Rain = 0
KOD1 140714Z 05004KT 26/20 A3007 RMK A01 T02590196  RH  068%=      5-min Rain = 0
KOD1 140715Z 05005KT 26/20 A3007 RMK A01 T02590196  RH  068%=      5-min Rain = 0
KOD1 140716Z 06005KT 26/20 A3007 RMK A01 T02590196  RH  068%=      5-min Rain = 0
KOD1 140717Z 05006KT 26/20 A3006 RMK A01 T02590196  RH  068%=      5-min Rain = 0
KOD1 140718Z 06006KT 26/20 A3006 RMK A01 T02590195  RH  068%=      5-min Rain = 0
KOD1 140719Z 06006KT 26/20 A3006 RMK A01 T02590195  RH  068%=      5-min Rain = 0
KOD1 140720Z 05006KT 26/20 A3006 RMK A01 T02580195  RH  068%=      5-min Rain = 0
KOD1 140721Z 06005KT 26/20 A3006 RMK A01 T02580196  RH  068%=      5-min Rain = 0
KOD1 140722Z 06005KT 26/20 A3006 RMK A01 T02570196  RH  069%=      5-min Rain = 0
KOD1 140723Z 05006KT 26/20 A3006 RMK A01 T02570196  RH  069%=      5-min Rain = 0
KOD1 140724Z 05006KT 26/20 A3006 RMK A01 T02560196  RH  069%=      5-min Rain = 0
KOD1 140725Z 05006KT 26/20 A3006 RMK A01 T02560196  RH  069%=      5-min Rain = 0
KOD1 140726Z 05006KT 26/20 A3006 RMK A01 T02550196  RH  070%=      5-min Rain = 0
KOD1 140727Z 05006KT 25/20 A3006 RMK A01 T02540196  RH  070%=      5-min Rain = 0
KOD1 140728Z 05006KT 25/20 A3006 RMK A01 T02540196  RH  070%=      5-min Rain = 0
KOD1 140729Z 05006KT 25/20 A3006 RMK A01 T02530196  RH  071%=      5-min Rain = 0
KOD1 140730Z 04006KT 25/20 A3006 RMK A01 T02530196  RH  071%=      5-min Rain = 0
KOD1 140731Z 04006KT 25/20 A3006 RMK A01 T02520196  RH  071%=      5-min Rain = 0
KOD1 140732Z 04007KT 25/20 A3006 RMK A01 T02520195  RH  071%=      5-min Rain = 0
KOD1 140733Z 04006KT 25/20 A3006 RMK A01 T02520195  RH  071%=      5-min Rain = 0
KOD1 140734Z 04006KT 25/20 A3006 RMK A01 T02520196  RH  071%=      5-min Rain = 0
KOD1 140735Z 04006KT 25/20 A3006 RMK A01 T02510196  RH  071%=      5-min Rain = 0
KOD1 140736Z 03006KT 25/20 A3006 RMK A01 T02510196  RH  072%=      5-min Rain = 0
KOD1 140737Z 03006KT 25/20 A3006 RMK A01 T02500197  RH  072%=      5-min Rain = 0
KOD1 140738Z 03006KT 25/20 A3006 RMK A01 T02490197  RH  072%=      5-min Rain = 0
KOD1 140739Z 04006KT 25/20 A3006 RMK A01 T02490196  RH  072%=      5-min Rain = 0
KOD1 140740Z 04006KT 25/20 A3006 RMK A01 T02490196  RH  072%=      5-min Rain = 0
KOD1 140741Z 04007KT 25/20 A3006 RMK A01 T02490196  RH  072%=      5-min Rain = 0
KOD1 140742Z 03007KT 25/20 A3006 RMK A01 T02490197  RH  073%=      5-min Rain = 0
KOD1 140743Z 02008KT 25/20 A3007 RMK A01 T02490197  RH  073%=      5-min Rain = 0
KOD1 140744Z 03008KT 25/20 A3007 RMK A01 T02490197  RH  073%=      5-min Rain = 0
KOD1 140745Z 03008KT 25/20 A3007 RMK A01 T02490197  RH  073%=      5-min Rain = 0
KOD1 140746Z 03009KT 25/20 A3007 RMK A01 T02490196  RH  073%=      5-min Rain = 0
KOD1 140747Z 04011KT 25/20 A3007 RMK A01 T02500195  RH  072%=      5-min Rain = 0
KOD1 140748Z 02011KT 25/19 A3007 RMK A01 T02510194  RH  071%=      5-min Rain = 0
KOD1 140749Z 02011KT 25/19 A3007 RMK A01 T02520193  RH  070%=      5-min Rain = 0
KOD1 140750Z 02009KT 25/19 A3007 RMK A01 T02520193  RH  070%=      5-min Rain = 0
KOD1 140751Z 02010KT 25/19 A3007 RMK A01 T02520193  RH  070%=      5-min Rain = 0
KOD1 140752Z 02013KT 25/19 A3007 RMK A01 T02520194  RH  070%=      5-min Rain = 0
KOD1 140753Z 02010KT 25/19 A3007 RMK A01 T02520194  RH  070%=      5-min Rain = 0
KOD1 140754Z 02009KT 25/20 A3007 RMK A01 T02510195  RH  071%=      5-min Rain = 0
KOD1 140755Z 02009KT 25/20 A3007 RMK A01 T02500195  RH  071%=      5-min Rain = 0
KOD1 140756Z 02010KT 25/20 A3007 RMK A01 T02490196  RH  072%=      5-min Rain = 0
KOD1 140757Z 03010G15KT 25/20 A3007 RMK A01 T02480196  RH  072%=      5-min Rain = 0
KOD1 140758Z 02011KT 25/20 A3007 RMK A01 T02480196  RH  073%=      5-min Rain = 0
KOD1 140759Z 02011KT 25/20 A3007 RMK A01 T02480197  RH  073%=      5-min Rain = 0
KOD1 140800Z 04010KT 25/20 A3007 RMK A01 T02480196  RH  073%=      5-min Rain = 0
KOD1 140801Z 04010KT 25/20 A3007 RMK A01 T02470196  RH  073%=      5-min Rain = 0
KOD1 140802Z 04010KT 25/20 A3007 RMK A01 T02460196  RH  074%=      5-min Rain = 0
KOD1 140803Z 03011KT 25/20 A3007 RMK A01 T02460196  RH  074%=      5-min Rain = 0
KOD1 140804Z 03010KT 25/20 A3007 RMK A01 T02450196  RH  074%=      5-min Rain = 0
KOD1 140805Z 03011KT 25/20 A3007 RMK A01 T02450196  RH  074%=      5-min Rain = 0
KOD1 140806Z 03011KT 24/20 A3007 RMK A01 T02440195  RH  074%=      5-min Rain = 0
KOD1 140807Z 03012KT 24/20 A3007 RMK A01 T02440195  RH  074%=      5-min Rain = 0
KOD1 140808Z 03012KT 24/20 A3007 RMK A01 T02440195  RH  074%=      5-min Rain = 0
KOD1 140809Z 04010G15KT 24/20 A3007 RMK A01 T02430195  RH  074%=      5-min Rain = 0
KOD1 140810Z 04011KT 24/20 A3006 RMK A01 T02430195  RH  074%=      5-min Rain = 0
KOD1 140811Z 03009KT 24/19 A3006 RMK A01 T02430194  RH  074%=      5-min Rain = 0
KOD1 140812Z 03008KT 24/19 A3006 RMK A01 T02420194  RH  075%=      5-min Rain = 0
KOD1 140813Z 03008KT 24/19 A3006 RMK A01 T02410194  RH  075%=      5-min Rain = 0
KOD1 140814Z 03010KT 24/19 A3006 RMK A01 T02410194  RH  075%=      5-min Rain = 0
KOD1 140815Z 02010KT 24/19 A3007 RMK A01 T02410194  RH  075%=      5-min Rain = 0
KOD1 140816Z 02009KT 24/20 A3007 RMK A01 T02410195  RH  075%=      5-min Rain = 0
KOD1 140817Z 02011KT 24/19 A3007 RMK A01 T02400194  RH  076%=      5-min Rain = 0
KOD1 140818Z 03011KT 24/19 A3007 RMK A01 T02400194  RH  075%=      5-min Rain = 0
KOD1 140819Z 03009KT 24/19 A3007 RMK A01 T02400194  RH  075%=      5-min Rain = 0
KOD1 140820Z 03009KT 24/19 A3007 RMK A01 T02400194  RH  076%=      5-min Rain = 0
KOD1 140821Z 02008KT 24/19 A3007 RMK A01 T02390194  RH  076%=      5-min Rain = 0
KOD1 140822Z 03011KT 24/19 A3007 RMK A01 T02380194  RH  076%=      5-min Rain = 0
KOD1 140823Z 03011KT 24/19 A3007 RMK A01 T02390193  RH  076%=      5-min Rain = 0
KOD1 140824Z 03011KT 24/19 A3007 RMK A01 T02390193  RH  075%=      5-min Rain = 0
KOD1 140825Z 03010KT 24/19 A3007 RMK A01 T02390192  RH  075%=      5-min Rain = 0
KOD1 140826Z 03010KT 24/19 A3007 RMK A01 T02380192  RH  075%=      5-min Rain = 0
KOD1 140827Z 03009KT 24/19 A3007 RMK A01 T02380191  RH  075%=      5-min Rain = 0
KOD1 140828Z 03009KT 24/19 A3007 RMK A01 T02380191  RH  075%=      5-min Rain = 0
KOD1 140829Z 03010KT 24/19 A3007 RMK A01 T02370190  RH  075%=      5-min Rain = 0
KOD1 140830Z 03009KT 24/19 A3007 RMK A01 T02370191  RH  075%=      5-min Rain = 0
KOD1 140831Z 03009KT 24/19 A3007 RMK A01 T02360190  RH  075%=      5-min Rain = 0
KOD1 140832Z 02009KT 24/19 A3007 RMK A01 T02360191  RH  075%=      5-min Rain = 0
KOD1 140833Z 02009KT 24/19 A3007 RMK A01 T02360190  RH  076%=      5-min Rain = 0
KOD1 140834Z 03010KT 24/19 A3007 RMK A01 T02350190  RH  076%=      5-min Rain = 0
KOD1 140835Z 03008KT 24/19 A3007 RMK A01 T02350190  RH  076%=      5-min Rain = 0
KOD1 140836Z 02009KT 24/19 A3007 RMK A01 T02350190  RH  076%=      5-min Rain = 0
KOD1 140837Z 02008KT 23/19 A3007 RMK A01 T02340190  RH  076%=      5-min Rain = 0
KOD1 140838Z 02008KT 23/19 A3007 RMK A01 T02330190  RH  076%=      5-min Rain = 0
KOD1 140839Z 02008KT 23/19 A3007 RMK A01 T02330189  RH  077%=      5-min Rain = 0
KOD1 140840Z 02009KT 23/19 A3007 RMK A01 T02330189  RH  077%=      5-min Rain = 0
KOD1 140841Z 02008KT 23/19 A3007 RMK A01 T02330189  RH  077%=      5-min Rain = 0
KOD1 140842Z 02007KT 23/19 A3007 RMK A01 T02330189  RH  077%=      5-min Rain = 0
KOD1 140843Z 03008KT 23/19 A3007 RMK A01 T02320189  RH  077%=      5-min Rain = 0
KOD1 140844Z 03008KT 23/19 A3007 RMK A01 T02320189  RH  077%=      5-min Rain = 0
KOD1 140845Z 03008KT 23/19 A3007 RMK A01 T02310189  RH  077%=      5-min Rain = 0
KOD1 140846Z 03008KT 23/19 A3007 RMK A01 T02310189  RH  077%=      5-min Rain = 0
KOD1 140847Z 03009KT 23/19 A3007 RMK A01 T02310189  RH  077%=      5-min Rain = 0
KOD1 140848Z 03008KT 23/19 A3007 RMK A01 T02310189  RH  077%=      5-min Rain = 0
KOD1 140849Z 03008KT 23/19 A3007 RMK A01 T02310190  RH  077%=      5-min Rain = 0
KOD1 140850Z 04009KT 23/19 A3007 RMK A01 T02320190  RH  077%=      5-min Rain = 0
KOD1 140851Z 03009KT 23/19 A3007 RMK A01 T02320190  RH  077%=      5-min Rain = 0
KOD1 140852Z 03010KT 23/19 A3007 RMK A01 T02330190  RH  077%=      5-min Rain = 0
KOD1 140853Z 04009KT 23/19 A3007 RMK A01 T02330190  RH  077%=      5-min Rain = 0
KOD1 140854Z 04008KT 23/19 A3007 RMK A01 T02330190  RH  077%=      5-min Rain = 0
KOD1 140855Z 04009KT 23/19 A3007 RMK A01 T02330190  RH  077%=      5-min Rain = 0
KOD1 140856Z 04008KT 23/19 A3007 RMK A01 T02320189  RH  077%=      5-min Rain = 0
KOD1 140857Z 03007KT 23/19 A3007 RMK A01 T02320190  RH  077%=      5-min Rain = 0
KOD1 140858Z 03008KT 23/19 A3007 RMK A01 T02320190  RH  077%=      5-min Rain = 0
KOD1 140859Z 04008KT 23/19 A3007 RMK A01 T02320190  RH  077%=      5-min Rain = 0
KOD1 140900Z 03008KT 23/19 A3007 RMK A01 T02320190  RH  077%=      5-min Rain = 0
KOD1 140901Z 03008KT 23/19 A3007 RMK A01 T02320190  RH  077%=      5-min Rain = 0
KOD1 140902Z 03009KT 23/19 A3007 RMK A01 T02310190  RH  077%=      5-min Rain = 0
KOD1 140903Z 03009KT 23/19 A3007 RMK A01 T02320189  RH  077%=      5-min Rain = 0
KOD1 140904Z 03008KT 23/19 A3007 RMK A01 T02320189  RH  077%=      5-min Rain = 0
KOD1 140905Z 03009KT 23/19 A3007 RMK A01 T02310189  RH  077%=      5-min Rain = 0
KOD1 140906Z 03009KT 23/19 A3007 RMK A01 T02310189  RH  077%=      5-min Rain = 0
KOD1 140907Z 03009KT 23/19 A3007 RMK A01 T02310189  RH  077%=      5-min Rain = 0
KOD1 140908Z 03009KT 23/19 A3007 RMK A01 T02310189  RH  077%=      5-min Rain = 0
KOD1 140909Z 03008KT 23/19 A3007 RMK A01 T02310189  RH  077%=      5-min Rain = 0
KOD1 140910Z 03007KT 23/19 A3007 RMK A01 T02310189  RH  077%=      5-min Rain = 0
KOD1 140911Z 03008KT 23/19 A3007 RMK A01 T02300189  RH  077%=      5-min Rain = 0
KOD1 140912Z 03008KT 23/19 A3007 RMK A01 T02300189  RH  078%=      5-min Rain = 0
KOD1 140913Z 03007KT 23/19 A3007 RMK A01 T02300189  RH  078%=      5-min Rain = 0
KOD1 140914Z 02007KT 23/19 A3007 RMK A01 T02300189  RH  078%=      5-min Rain = 0
KOD1 140915Z 02007KT 23/19 A3007 RMK A01 T02290189  RH  078%=      5-min Rain = 0
KOD1 140916Z 02007KT 23/19 A3007 RMK A01 T02290188  RH  078%=      5-min Rain = 0
KOD1 140917Z 02007KT 23/19 A3007 RMK A01 T02290188  RH  078%=      5-min Rain = 0
KOD1 140918Z 02007KT 23/19 A3007 RMK A01 T02290189  RH  078%=      5-min Rain = 0
KOD1 140919Z 02007KT 23/19 A3007 RMK A01 T02280188  RH  078%=      5-min Rain = 0
KOD1 140920Z 02008KT 23/19 A3007 RMK A01 T02280188  RH  078%=      5-min Rain = 0
KOD1 140921Z 01007KT 23/19 A3007 RMK A01 T02280188  RH  078%=      5-min Rain = 0
KOD1 140922Z 02008KT 23/19 A3007 RMK A01 T02280188  RH  078%=      5-min Rain = 0
KOD1 140923Z 02008KT 23/19 A3007 RMK A01 T02290188  RH  078%=      5-min Rain = 0
KOD1 140924Z 01008KT 23/19 A3007 RMK A01 T02290187  RH  078%=      5-min Rain = 0
KOD1 140925Z 01008KT 23/19 A3007 RMK A01 T02290187  RH  078%=      5-min Rain = 0
KOD1 140926Z 02008KT 23/19 A3008 RMK A01 T02290187  RH  077%=      5-min Rain = 0
KOD1 140927Z 01008KT 23/19 A3008 RMK A01 T02290187  RH  077%=      5-min Rain = 0
KOD1 140928Z 01008KT 23/19 A3008 RMK A01 T02290187  RH  077%=      5-min Rain = 0
KOD1 140929Z 02007KT 23/19 A3008 RMK A01 T02290187  RH  077%=      5-min Rain = 0
KOD1 140930Z 01007KT 23/19 A3008 RMK A01 T02290187  RH  077%=      5-min Rain = 0
KOD1 140931Z 01007KT 23/19 A3008 RMK A01 T02290187  RH  077%=      5-min Rain = 0
KOD1 140932Z 02009KT 23/19 A3008 RMK A01 T02290187  RH  077%=      5-min Rain = 0
KOD1 140933Z 02008KT 23/19 A3008 RMK A01 T02300187  RH  077%=      5-min Rain = 0
KOD1 140934Z 02008KT 23/19 A3008 RMK A01 T02290186  RH  077%=      5-min Rain = 0
KOD1 140935Z 02008KT 23/19 A3008 RMK A01 T02290187  RH  077%=      5-min Rain = 0
KOD1 140936Z 02008KT 23/19 A3008 RMK A01 T02290186  RH  077%=      5-min Rain = 0
KOD1 140937Z 02009KT 23/19 A3008 RMK A01 T02290186  RH  077%=      5-min Rain = 0
KOD1 140938Z 02009KT 23/19 A3008 RMK A01 T02290186  RH  077%=      5-min Rain = 0
KOD1 140939Z 02009KT 23/19 A3008 RMK A01 T02290186  RH  076%=      5-min Rain = 0
KOD1 140940Z 02008KT 23/19 A3008 RMK A01 T02290185  RH  076%=      5-min Rain = 0
KOD1 140941Z 02008KT 23/19 A3008 RMK A01 T02290185  RH  076%=      5-min Rain = 0
KOD1 140942Z 02007KT 23/19 A3008 RMK A01 T02290185  RH  077%=      5-min Rain = 0
KOD1 140943Z 02006KT 23/19 A3008 RMK A01 T02280185  RH  077%=      5-min Rain = 0
KOD1 140944Z 02007KT 23/19 A3008 RMK A01 T02280185  RH  077%=      5-min Rain = 0
KOD1 140945Z 03006KT 23/19 A3008 RMK A01 T02280185  RH  077%=      5-min Rain = 0
KOD1 140946Z 02008KT 23/19 A3008 RMK A01 T02280185  RH  077%=      5-min Rain = 0
KOD1 140947Z 02007KT 23/19 A3008 RMK A01 T02280185  RH  077%=      5-min Rain = 0
KOD1 140948Z 02007KT 23/19 A3008 RMK A01 T02280185  RH  077%=      5-min Rain = 0
KOD1 140949Z 02008KT 23/19 A3008 RMK A01 T02280185  RH  077%=      5-min Rain = 0
KOD1 140950Z 02007KT 23/19 A3009 RMK A01 T02280185  RH  077%=      5-min Rain = 0
KOD1 140951Z 02007KT 23/19 A3009 RMK A01 T02280185  RH  077%=      5-min Rain = 0
KOD1 140952Z 03007KT 23/18 A3008 RMK A01 T02270184  RH  077%=      5-min Rain = 0
KOD1 140953Z 03007KT 23/18 A3008 RMK A01 T02270184  RH  077%=      5-min Rain = 0
KOD1 140954Z 02007KT 23/18 A3008 RMK A01 T02270184  RH  077%=      5-min Rain = 0
KOD1 140955Z 02007KT 23/18 A3008 RMK A01 T02270184  RH  077%=      5-min Rain = 0
KOD1 140956Z 02005KT 23/18 A3008 RMK A01 T02270184  RH  077%=      5-min Rain = 0
KOD1 140957Z 02006KT 23/19 A3008 RMK A01 T02270185  RH  077%=      5-min Rain = 0
KOD1 140958Z 02007KT 23/18 A3008 RMK A01 T02270184  RH  077%=      5-min Rain = 0
KOD1 140959Z 02006KT 23/18 A3008 RMK A01 T02270184  RH  077%=      5-min Rain = 0
KOD1 141000Z 02006KT 23/19 A3008 RMK A01 T02270185  RH  077%=      5-min Rain = 0
KOD1 141001Z 02007KT 23/18 A3008 RMK A01 T02270184  RH  077%=      5-min Rain = 0
KOD1 141002Z 01006KT 23/19 A3008 RMK A01 T02270185  RH  077%=      5-min Rain = 0
KOD1 141003Z 02007KT 23/18 A3008 RMK A01 T02270184  RH  077%=      5-min Rain = 0
KOD1 141004Z 01006KT 23/19 A3009 RMK A01 T02270185  RH  077%=      5-min Rain = 0
KOD1 141005Z 02007KT 23/19 A3009 RMK A01 T02270185  RH  077%=      5-min Rain = 0
KOD1 141006Z 01007KT 23/19 A3009 RMK A01 T02270185  RH  077%=      5-min Rain = 0
KOD1 141007Z 02007KT 23/18 A3009 RMK A01 T02270184  RH  077%=      5-min Rain = 0
KOD1 141008Z 02009KT 23/18 A3009 RMK A01 T02280184  RH  077%=      5-min Rain = 0
KOD1 141009Z 02007KT 23/18 A3009 RMK A01 T02280184  RH  076%=      5-min Rain = 0
KOD1 141010Z 02008KT 23/19 A3009 RMK A01 T02280185  RH  076%=      5-min Rain = 0
KOD1 141011Z 03007KT 23/19 A3008 RMK A01 T02280185  RH  077%=      5-min Rain = 0
KOD1 141012Z 02006KT 23/19 A3008 RMK A01 T02270185  RH  077%=      5-min Rain = 0
KOD1 141013Z 02008KT 23/18 A3008 RMK A01 T02270184  RH  077%=      5-min Rain = 0
KOD1 141014Z 02008KT 23/18 A3008 RMK A01 T02270184  RH  077%=      5-min Rain = 0
KOD1 141015Z 02007KT 23/18 A3008 RMK A01 T02270184  RH  077%=      5-min Rain = 0
KOD1 141016Z 02007KT 23/18 A3009 RMK A01 T02270184  RH  077%=      5-min Rain = 0
KOD1 141017Z 02006KT 23/18 A3009 RMK A01 T02260184  RH  077%=      5-min Rain = 0
KOD1 141018Z 02006KT 23/18 A3009 RMK A01 T02260184  RH  077%=      5-min Rain = 0
KOD1 141019Z 03007KT 23/19 A3009 RMK A01 T02250185  RH  078%=      5-min Rain = 0
KOD1 141020Z 02007KT 23/19 A3009 RMK A01 T02250185  RH  078%=      5-min Rain = 0
KOD1 141021Z 02007KT 23/18 A3009 RMK A01 T02250184  RH  078%=      5-min Rain = 0
KOD1 141022Z 02007KT 23/18 A3008 RMK A01 T02250184  RH  078%=      5-min Rain = 0
KOD1 141023Z 02006KT 23/18 A3009 RMK A01 T02250184  RH  078%=      5-min Rain = 0
KOD1 141024Z 02007KT 23/18 A3009 RMK A01 T02250184  RH  078%=      5-min Rain = 0
KOD1 141025Z 02006KT 22/18 A3009 RMK A01 T02240184  RH  078%=      5-min Rain = 0
KOD1 141026Z 02007KT 22/19 A3009 RMK A01 T02240185  RH  078%=      5-min Rain = 0
KOD1 141027Z 02006KT 22/18 A3009 RMK A01 T02230184  RH  079%=      5-min Rain = 0
KOD1 141028Z 02007KT 22/19 A3009 RMK A01 T02230185  RH  079%=      5-min Rain = 0
KOD1 141029Z 02007KT 22/19 A3009 RMK A01 T02230185  RH  079%=      5-min Rain = 0
KOD1 141030Z 03007KT 22/18 A3009 RMK A01 T02230184  RH  079%=      5-min Rain = 0
KOD1 141031Z 03006KT 22/19 A3009 RMK A01 T02230185  RH  079%=      5-min Rain = 0
KOD1 141032Z 03007KT 22/18 A3009 RMK A01 T02220184  RH  079%=      5-min Rain = 0
KOD1 141033Z 03007KT 22/18 A3009 RMK A01 T02220184  RH  079%=      5-min Rain = 0
KOD1 141034Z 02008KT 22/18 A3009 RMK A01 T02220184  RH  079%=      5-min Rain = 0
KOD1 141035Z 02007KT 22/18 A3009 RMK A01 T02220184  RH  079%=      5-min Rain = 0
KOD1 141036Z 02007KT 22/18 A3008 RMK A01 T02220184  RH  079%=      5-min Rain = 0
KOD1 141037Z 02007KT 22/19 A3008 RMK A01 T02220185  RH  079%=      5-min Rain = 0
KOD1 141038Z 02007KT 22/18 A3008 RMK A01 T02210184  RH  080%=      5-min Rain = 0
KOD1 141039Z 02007KT 22/18 A3008 RMK A01 T02210184  RH  080%=      5-min Rain = 0
KOD1 141040Z 02007KT 22/19 A3008 RMK A01 T02210185  RH  080%=      5-min Rain = 0
KOD1 141041Z 02006KT 22/19 A3008 RMK A01 T02210185  RH  080%=      5-min Rain = 0
KOD1 141042Z 02006KT 22/18 A3008 RMK A01 T02200184  RH  080%=      5-min Rain = 0
KOD1 141043Z 02006KT 22/19 A3008 RMK A01 T02200185  RH  080%=      5-min Rain = 0
KOD1 141044Z 02006KT 22/19 A3008 RMK A01 T02200185  RH  080%=      5-min Rain = 0
KOD1 141045Z 01006KT 22/19 A3008 RMK A01 T02190185  RH  081%=      5-min Rain = 0
KOD1 141046Z 01006KT 22/19 A3008 RMK A01 T02190185  RH  081%=      5-min Rain = 0
KOD1 141047Z 01006KT 22/18 A3008 RMK A01 T02190184  RH  081%=      5-min Rain = 0
KOD1 141048Z 01006KT 22/18 A3008 RMK A01 T02190184  RH  081%=      5-min Rain = 0
KOD1 141049Z 01006KT 22/18 A3008 RMK A01 T02190184  RH  081%=      5-min Rain = 0
KOD1 141050Z 01006KT 22/18 A3008 RMK A01 T02190184  RH  081%=      5-min Rain = 0
KOD1 141051Z 01005KT 22/18 A3008 RMK A01 T02190184  RH  081%=      5-min Rain = 0
KOD1 141052Z 01005KT 22/18 A3008 RMK A01 T02190184  RH  081%=      5-min Rain = 0
KOD1 141053Z 02006KT 22/19 A3008 RMK A01 T02190185  RH  081%=      5-min Rain = 0
KOD1 141054Z 02005KT 22/19 A3008 RMK A01 T02190185  RH  081%=      5-min Rain = 0
KOD1 141055Z 02006KT 22/19 A3008 RMK A01 T02190185  RH  081%=      5-min Rain = 0
KOD1 141056Z 02006KT 22/19 A3008 RMK A01 T02190185  RH  081%=      5-min Rain = 0
KOD1 141057Z 02006KT 22/19 A3008 RMK A01 T02190185  RH  081%=      5-min Rain = 0
KOD1 141058Z 02006KT 22/19 A3008 RMK A01 T02190185  RH  081%=      5-min Rain = 0
KOD1 141059Z 02006KT 22/19 A3008 RMK A01 T02180185  RH  081%=      5-min Rain = 0
KOD1 141100Z 02006KT 22/19 A3008 RMK A01 T02180185  RH  081%=      5-min Rain = 0
KOD1 141101Z 01006KT 22/19 A3008 RMK A01 T02180185  RH  082%=      5-min Rain = 0
KOD1 141102Z 02006KT 22/19 A3008 RMK A01 T02180185  RH  081%=      5-min Rain = 0
KOD1 141103Z 01005KT 22/19 A3008 RMK A01 T02180185  RH  082%=      5-min Rain = 0
KOD1 141104Z 01004KT 22/19 A3008 RMK A01 T02180185  RH  082%=      5-min Rain = 0
KOD1 141105Z 01005KT 22/19 A3008 RMK A01 T02170185  RH  082%=      5-min Rain = 0
KOD1 141106Z 01005KT 22/19 A3008 RMK A01 T02170185  RH  082%=      5-min Rain = 0
KOD1 141107Z 01006KT 22/19 A3008 RMK A01 T02170185  RH  082%=      5-min Rain = 0
KOD1 141108Z 01006KT 22/19 A3008 RMK A01 T02170185  RH  082%=      5-min Rain = 0
KOD1 141109Z 00006KT 22/19 A3009 RMK A01 T02170185  RH  082%=      5-min Rain = 0
KOD1 141110Z 01006KT 22/19 A3009 RMK A01 T02170186  RH  082%=      5-min Rain = 0
KOD1 141111Z 01006KT 22/19 A3009 RMK A01 T02170186  RH  083%=      5-min Rain = 0
KOD1 141112Z 01006KT 22/19 A3009 RMK A01 T02170186  RH  083%=      5-min Rain = 0
KOD1 141113Z 01006KT 22/19 A3009 RMK A01 T02170186  RH  083%=      5-min Rain = 0
KOD1 141114Z 01006KT 22/19 A3008 RMK A01 T02170186  RH  083%=      5-min Rain = 0
KOD1 141115Z 01005KT 22/19 A3008 RMK A01 T02170186  RH  083%=      5-min Rain = 0
KOD1 141116Z 01006KT 22/19 A3008 RMK A01 T02170186  RH  083%=      5-min Rain = 0
KOD1 141117Z 01006KT 22/19 A3008 RMK A01 T02160186  RH  083%=      5-min Rain = 0
KOD1 141118Z 01006KT 22/19 A3008 RMK A01 T02160186  RH  083%=      5-min Rain = 0
KOD1 141119Z 01007KT 22/19 A3008 RMK A01 T02160186  RH  083%=      5-min Rain = 0
KOD1 141120Z 01007KT 22/19 A3008 RMK A01 T02160186  RH  083%=      5-min Rain = 0
KOD1 141121Z 01007KT 22/19 A3008 RMK A01 T02160186  RH  083%=      5-min Rain = 0
KOD1 141122Z 01007KT 22/19 A3009 RMK A01 T02150186  RH  083%=      5-min Rain = 0
KOD1 141123Z 01007KT 22/19 A3009 RMK A01 T02160187  RH  084%=      5-min Rain = 0
KOD1 141124Z 01006KT 22/19 A3009 RMK A01 T02150187  RH  084%=      5-min Rain = 0
KOD1 141125Z 00007KT 22/19 A3009 RMK A01 T02150187  RH  084%=      5-min Rain = 0
KOD1 141126Z 00006KT 22/19 A3009 RMK A01 T02150187  RH  084%=      5-min Rain = 0
KOD1 141127Z 00006KT 22/19 A3009 RMK A01 T02150187  RH  084%=      5-min Rain = 0
KOD1 141128Z 36006KT 22/19 A3009 RMK A01 T02150187  RH  084%=      5-min Rain = 0
KOD1 141129Z 36006KT 22/19 A3009 RMK A01 T02150187  RH  084%=      5-min Rain = 0
KOD1 141130Z 36006KT 22/19 A3009 RMK A01 T02150187  RH  084%=      5-min Rain = 0
KOD1 141131Z 36005KT 22/19 A3009 RMK A01 T02150187  RH  084%=      5-min Rain = 0
KOD1 141132Z 00005KT 22/19 A3009 RMK A01 T02150187  RH  084%=      5-min Rain = 0
KOD1 141133Z 36005KT 22/19 A3009 RMK A01 T02150187  RH  084%=      5-min Rain = 0
KOD1 141134Z 36006KT 21/19 A3009 RMK A01 T02140187  RH  085%=      5-min Rain = 0
KOD1 141135Z 35006KT 21/19 A3009 RMK A01 T02140187  RH  085%=      5-min Rain = 0
KOD1 141136Z 35006KT 21/19 A3009 RMK A01 T02140187  RH  085%=      5-min Rain = 0
KOD1 141137Z 35007KT 21/19 A3009 RMK A01 T02130188  RH  085%=      5-min Rain = 0
KOD1 141138Z 35007KT 21/19 A3009 RMK A01 T02130188  RH  085%=      5-min Rain = 0
KOD1 141139Z 35007KT 21/19 A3009 RMK A01 T02130188  RH  086%=      5-min Rain = 0
KOD1 141140Z 35007KT 21/19 A3009 RMK A01 T02120188  RH  086%=      5-min Rain = 0
KOD1 141141Z 35007KT 21/19 A3009 RMK A01 T02120188  RH  086%=      5-min Rain = 0
KOD1 141142Z 35006KT 21/19 A3009 RMK A01 T02120188  RH  086%=      5-min Rain = 0
KOD1 141143Z 35006KT 21/19 A3009 RMK A01 T02120188  RH  086%=      5-min Rain = 0
KOD1 141144Z 34006KT 21/19 A3009 RMK A01 T02120188  RH  086%=      5-min Rain = 0
KOD1 141145Z 34006KT 21/19 A3009 RMK A01 T02110188  RH  087%=      5-min Rain = 0
KOD1 141146Z 34006KT 21/19 A3009 RMK A01 T02110188  RH  087%=      5-min Rain = 0
KOD1 141147Z 34006KT 21/19 A3009 RMK A01 T02100188  RH  087%=      5-min Rain = 0
KOD1 141148Z 34007KT 21/19 A301 RMK A01 T02100188  RH  087%=      5-min Rain = 0
KOD1 141149Z 34005KT 21/19 A301 RMK A01 T02100188  RH  087%=      5-min Rain = 0
KOD1 141150Z 34005KT 21/19 A301 RMK A01 T02100188  RH  087%=      5-min Rain = 0
KOD1 141151Z 34005KT 21/19 A301 RMK A01 T02100188  RH  087%=      5-min Rain = 0
KOD1 141152Z 33006KT 21/19 A301 RMK A01 T02100188  RH  087%=      5-min Rain = 0
KOD1 141153Z 33007KT 21/19 A301 RMK A01 T02100187  RH  087%=      5-min Rain = 0
KOD1 141154Z 34006KT 21/19 A301 RMK A01 T02100187  RH  087%=      5-min Rain = 0
KOD1 141155Z 34007KT 21/19 A301 RMK A01 T02100187  RH  087%=      5-min Rain = 0
KOD1 141156Z 34006KT 21/19 A301 RMK A01 T02100187  RH  087%=      5-min Rain = 0
KOD1 141157Z 34006KT 21/19 A301 RMK A01 T02100186  RH  087%=      5-min Rain = 0
KOD1 141158Z 35007KT 21/19 A301 RMK A01 T02100186  RH  087%=      5-min Rain = 0
KOD1 141159Z 34008KT 21/19 A301 RMK A01 T02090186  RH  087%=      5-min Rain = 0
KOD1 141200Z 34007KT 21/19 A301 RMK A01 T02100186  RH  087%=      5-min Rain = 0
KOD1 141201Z 34008KT 21/19 A301 RMK A01 T02090186  RH  087%=      5-min Rain = 0
KOD1 141202Z 34007KT 21/19 A301 RMK A01 T02100187  RH  087%=      5-min Rain = 0
KOD1 141203Z 34007KT 21/19 A301 RMK A01 T02100187  RH  087%=      5-min Rain = 0
KOD1 141204Z 34007KT 21/19 A301 RMK A01 T02090186  RH  087%=      5-min Rain = 0
KOD1 141205Z 34007KT 21/19 A301 RMK A01 T02090186  RH  087%=      5-min Rain = 0
KOD1 141206Z 34008KT 21/19 A301 RMK A01 T02090187  RH  087%=      5-min Rain = 0
KOD1 141207Z 34007KT 21/19 A301 RMK A01 T02090187  RH  087%=      5-min Rain = 0
KOD1 141208Z 34008KT 21/19 A301 RMK A01 T02090187  RH  087%=      5-min Rain = 0
KOD1 141209Z 34006KT 21/19 A301 RMK A01 T02090187  RH  087%=      5-min Rain = 0
KOD1 141210Z 34006KT 21/19 A301 RMK A01 T02090187  RH  087%=      5-min Rain = 0
KOD1 141211Z 34006KT 21/19 A301 RMK A01 T02090187  RH  087%=      5-min Rain = 0
KOD1 141212Z 35007KT 21/19 A301 RMK A01 T02090187  RH  087%=      5-min Rain = 0
KOD1 141213Z 34006KT 21/19 A301 RMK A01 T02090187  RH  087%=      5-min Rain = 0
KOD1 141214Z 34007KT 21/19 A3011 RMK A01 T02100188  RH  087%=      5-min Rain = 0
KOD1 141215Z 34008KT 21/19 A3011 RMK A01 T02100188  RH  087%=      5-min Rain = 0
KOD1 141216Z 34007KT 21/19 A3011 RMK A01 T02100188  RH  087%=      5-min Rain = 0
KOD1 141217Z 34007KT 21/19 A3011 RMK A01 T02100188  RH  087%=      5-min Rain = 0
KOD1 141218Z 34008KT 21/19 A3011 RMK A01 T02100188  RH  087%=      5-min Rain = 0
KOD1 141219Z 34008KT 21/19 A3011 RMK A01 T02110189  RH  087%=      5-min Rain = 0
KOD1 141220Z 34006KT 21/19 A3011 RMK A01 T02110189  RH  087%=      5-min Rain = 0
KOD1 141221Z 34008KT 21/19 A3011 RMK A01 T02120189  RH  087%=      5-min Rain = 0
KOD1 141222Z 34008KT 21/19 A3011 RMK A01 T02120189  RH  087%=      5-min Rain = 0
KOD1 141223Z 34008KT 21/19 A3011 RMK A01 T02120189  RH  087%=      5-min Rain = 0
KOD1 141224Z 35007KT 21/19 A3011 RMK A01 T02120189  RH  087%=      5-min Rain = 0
KOD1 141225Z 35006KT 21/19 A3011 RMK A01 T02130190  RH  087%=      5-min Rain = 0
KOD1 141226Z 35007KT 21/19 A3011 RMK A01 T02130189  RH  086%=      5-min Rain = 0
KOD1 141227Z 35008KT 21/19 A3011 RMK A01 T02130189  RH  086%=      5-min Rain = 0
KOD1 141228Z 35009KT 21/19 A3011 RMK A01 T02130189  RH  086%=      5-min Rain = 0
KOD1 141229Z 35007KT 21/19 A3011 RMK A01 T02130189  RH  086%=      5-min Rain = 0
KOD1 141230Z 35007KT 21/19 A3011 RMK A01 T02130189  RH  086%=      5-min Rain = 0
KOD1 141231Z 35008KT 21/19 A3011 RMK A01 T02130189  RH  086%=      5-min Rain = 0
KOD1 141232Z 35006KT 21/19 A3011 RMK A01 T02140189  RH  086%=      5-min Rain = 0
KOD1 141233Z 35006KT 21/19 A3011 RMK A01 T02140189  RH  086%=      5-min Rain = 0
KOD1 141234Z 35006KT 21/19 A3011 RMK A01 T02140189  RH  085%=      5-min Rain = 0
KOD1 141235Z 35005KT 22/19 A3011 RMK A01 T02150189  RH  085%=      5-min Rain = 0
KOD1 141236Z 35006KT 22/19 A3011 RMK A01 T02150190  RH  085%=      5-min Rain = 0
KOD1 141237Z 34006KT 22/19 A3011 RMK A01 T02150190  RH  085%=      5-min Rain = 0
KOD1 141238Z 35007KT 22/19 A3011 RMK A01 T02160190  RH  085%=      5-min Rain = 0
KOD1 141239Z 35006KT 22/19 A3011 RMK A01 T02160190  RH  085%=      5-min Rain = 0
KOD1 141240Z 34005KT 22/19 A3011 RMK A01 T02170190  RH  085%=      5-min Rain = 0
KOD1 141241Z 34006KT 22/19 A3011 RMK A01 T02170190  RH  085%=      5-min Rain = 0
KOD1 141242Z 34006KT 22/19 A3011 RMK A01 T02170190  RH  084%=      5-min Rain = 0
KOD1 141243Z 34007KT 22/19 A3011 RMK A01 T02170190  RH  084%=      5-min Rain = 0
KOD1 141244Z 35005KT 22/19 A3011 RMK A01 T02180190  RH  084%=      5-min Rain = 0
KOD1 141245Z 34008KT 22/19 A3011 RMK A01 T02180190  RH  084%=      5-min Rain = 0
KOD1 141246Z 34007KT 22/19 A3011 RMK A01 T02180190  RH  084%=      5-min Rain = 0
KOD1 141247Z 34005KT 22/19 A3011 RMK A01 T02180190  RH  084%=      5-min Rain = 0
KOD1 141248Z 34005KT 22/19 A3011 RMK A01 T02190190  RH  084%=      5-min Rain = 0
KOD1 141249Z 34005KT 22/19 A3011 RMK A01 T02190190  RH  084%=      5-min Rain = 0
KOD1 141250Z 34005KT 22/19 A3012 RMK A01 T02190190  RH  084%=      5-min Rain = 0
KOD1 141251Z 35006KT 22/19 A3012 RMK A01 T02200190  RH  083%=      5-min Rain = 0
KOD1 141252Z 34006KT 22/19 A3012 RMK A01 T02200191  RH  083%=      5-min Rain = 0
KOD1 141253Z 34007KT 22/19 A3012 RMK A01 T02210190  RH  083%=      5-min Rain = 0
KOD1 141254Z 34006KT 22/19 A3012 RMK A01 T02210190  RH  083%=      5-min Rain = 0
KOD1 141255Z 34007KT 22/19 A3012 RMK A01 T02210190  RH  083%=      5-min Rain = 0
KOD1 141256Z 34007KT 22/19 A3012 RMK A01 T02210190  RH  083%=      5-min Rain = 0
KOD1 141257Z 35007KT 22/19 A3012 RMK A01 T02210191  RH  083%=      5-min Rain = 0
KOD1 141258Z 35006KT 22/19 A3012 RMK A01 T02210191  RH  083%=      5-min Rain = 0
KOD1 141259Z 34005KT 22/19 A3012 RMK A01 T02220192  RH  083%=      5-min Rain = 0
KOD1 141300Z 34006KT 22/19 A3012 RMK A01 T02230191  RH  082%=      5-min Rain = 0
KOD1 141301Z 34006KT 22/19 A3012 RMK A01 T02230192  RH  082%=      5-min Rain = 0
KOD1 141302Z 34006KT 22/19 A3012 RMK A01 T02230191  RH  082%=      5-min Rain = 0
KOD1 141303Z 34006KT 22/19 A3012 RMK A01 T02240192  RH  082%=      5-min Rain = 0
KOD1 141304Z 34005KT 22/19 A3012 RMK A01 T02240192  RH  082%=      5-min Rain = 0
KOD1 141305Z 34006KT 23/19 A3012 RMK A01 T02250192  RH  081%=      5-min Rain = 0
KOD1 141306Z 35006KT 23/19 A3012 RMK A01 T02260192  RH  081%=      5-min Rain = 0
KOD1 141307Z 34004KT 23/19 A3011 RMK A01 T02260193  RH  081%=      5-min Rain = 0
KOD1 141308Z 34007KT 23/19 A3011 RMK A01 T02270193  RH  081%=      5-min Rain = 0
KOD1 141309Z 35008KT 23/19 A3011 RMK A01 T02270192  RH  081%=      5-min Rain = 0
KOD1 141310Z 34006KT 23/19 A3012 RMK A01 T02270193  RH  081%=      5-min Rain = 0
KOD1 141311Z 34008KT 23/19 A3012 RMK A01 T02280193  RH  081%=      5-min Rain = 0
KOD1 141312Z 34008KT 23/19 A3012 RMK A01 T02270192  RH  080%=      5-min Rain = 0
KOD1 141313Z 35007KT 23/19 A3012 RMK A01 T02270192  RH  081%=      5-min Rain = 0
KOD1 141314Z 35007KT 23/19 A3012 RMK A01 T02280193  RH  081%=      5-min Rain = 0
KOD1 141315Z 36007KT 23/19 A3012 RMK A01 T02290193  RH  081%=      5-min Rain = 0
KOD1 141316Z 35008KT 23/19 A3012 RMK A01 T02290193  RH  080%=      5-min Rain = 0
KOD1 141317Z 35006KT 23/19 A3012 RMK A01 T02290194  RH  080%=      5-min Rain = 0
KOD1 141318Z 35007KT 23/20 A3012 RMK A01 T02310195  RH  080%=      5-min Rain = 0
KOD1 141319Z 34009KT 23/19 A3012 RMK A01 T02310194  RH  080%=      5-min Rain = 0
KOD1 141320Z 34009KT 23/19 A3012 RMK A01 T02300193  RH  080%=      5-min Rain = 0
KOD1 141321Z 34009KT 23/19 A3012 RMK A01 T02300194  RH  080%=      5-min Rain = 0
KOD1 141322Z 35009KT 23/19 A3012 RMK A01 T02310194  RH  080%=      5-min Rain = 0
KOD1 141323Z 35008KT 23/19 A3012 RMK A01 T02310194  RH  079%=      5-min Rain = 0
KOD1 141324Z 35007KT 23/19 A3012 RMK A01 T02320194  RH  079%=      5-min Rain = 0
KOD1 141325Z 34006KT 23/20 A3012 RMK A01 T02330195  RH  079%=      5-min Rain = 0
KOD1 141326Z 35006KT 24/20 A3012 RMK A01 T02350196  RH  079%=      5-min Rain = 0
KOD1 141327Z 35008KT 24/20 A3012 RMK A01 T02350195  RH  078%=      5-min Rain = 0
KOD1 141328Z 34008KT 24/19 A3012 RMK A01 T02350194  RH  078%=      5-min Rain = 0
KOD1 141329Z 34007KT 23/19 A3012 RMK A01 T02340194  RH  078%=      5-min Rain = 0
KOD1 141330Z 34006KT 24/20 A3012 RMK A01 T02350195  RH  078%=      5-min Rain = 0
KOD1 141331Z 34007KT 24/20 A3012 RMK A01 T02360195  RH  078%=      5-min Rain = 0
KOD1 141332Z 34006KT 24/20 A3012 RMK A01 T02350195  RH  078%=      5-min Rain = 0
KOD1 141333Z 35005KT 24/20 A3012 RMK A01 T02350195  RH  078%=      5-min Rain = 0
KOD1 141334Z 35006KT 24/20 A3012 RMK A01 T02360195  RH  078%=      5-min Rain = 0
KOD1 141335Z 35006KT 24/20 A3012 RMK A01 T02360195  RH  078%=      5-min Rain = 0
KOD1 141336Z 35005KT 24/20 A3012 RMK A01 T02370195  RH  077%=      5-min Rain = 0
KOD1 141337Z 36005KT 24/20 A3012 RMK A01 T02380196  RH  077%=      5-min Rain = 0
KOD1 141338Z 35004KT 24/20 A3011 RMK A01 T02390196  RH  077%=      5-min Rain = 0
KOD1 141339Z 35004KT 24/20 A3011 RMK A01 T02410197  RH  077%=      5-min Rain = 0
KOD1 141340Z 36005KT 24/20 A3011 RMK A01 T02410195  RH  075%=      5-min Rain = 0
KOD1 141341Z 36005KT 24/20 A3011 RMK A01 T02410196  RH  076%=      5-min Rain = 0
KOD1 141342Z 35005KT 24/20 A3011 RMK A01 T02410196  RH  076%=      5-min Rain = 0
KOD1 141343Z 35006KT 24/20 A3011 RMK A01 T02410197  RH  076%=      5-min Rain = 0
KOD1 141344Z 01006KT 24/20 A3011 RMK A01 T02430197  RH  075%=      5-min Rain = 0
KOD1 141345Z 00005KT 24/20 A3011 RMK A01 T02430196  RH  075%=      5-min Rain = 0
KOD1 141346Z 36005KT 24/20 A3011 RMK A01 T02430196  RH  075%=      5-min Rain = 0
KOD1 141347Z 35005KT 24/20 A3011 RMK A01 T02440197  RH  075%=      5-min Rain = 0
KOD1 141348Z 00003KT 24/20 A3011 RMK A01 T02440197  RH  075%=      5-min Rain = 0
KOD1 141349Z 36004KT 25/20 A3011 RMK A01 T02460198  RH  075%=      5-min Rain = 0
KOD1 141350Z 01004KT 25/20 A3011 RMK A01 T02470198  RH  074%=      5-min Rain = 0
KOD1 141351Z 03004KT 25/20 A3011 RMK A01 T02480197  RH  073%=      5-min Rain = 0
KOD1 141352Z 03004KT 25/20 A3011 RMK A01 T02480198  RH  074%=      5-min Rain = 0
KOD1 141353Z 04005KT 25/20 A3011 RMK A01 T02490198  RH  073%=      5-min Rain = 0
KOD1 141354Z 03004KT 25/20 A3011 RMK A01 T02500198  RH  073%=      5-min Rain = 0
KOD1 141355Z 04004KT 25/20 A3011 RMK A01 T02510199  RH  073%=      5-min Rain = 0
KOD1 141356Z 05005KT 25/20 A3011 RMK A01 T02520199  RH  073%=      5-min Rain = 0
KOD1 141357Z 04004KT 25/20 A3011 RMK A01 T02530200  RH  072%=      5-min Rain = 0
KOD1 141358Z 04005KT 26/20 A3011 RMK A01 T02550200  RH  072%=      5-min Rain = 0
KOD1 141359Z 04006KT 26/20 A3011 RMK A01 T02560201  RH  072%=      5-min Rain = 0
KOD1 141400Z 04004KT 26/20 A3011 RMK A01 T02560202  RH  072%=      5-min Rain = 0
KOD1 141401Z 03005KT 26/20 A3011 RMK A01 T02570202  RH  072%=      5-min Rain = 0
KOD1 141402Z 03005KT 26/20 A3011 RMK A01 T02580203  RH  072%=      5-min Rain = 0
KOD1 141403Z 02005KT 26/20 A3011 RMK A01 T02580201  RH  071%=      5-min Rain = 0
KOD1 141404Z 01004KT 26/20 A3012 RMK A01 T02580201  RH  071%=      5-min Rain = 0
KOD1 141405Z 02004KT 26/20 A3012 RMK A01 T02580202  RH  071%=      5-min Rain = 0
KOD1 141406Z 00005KT 26/20 A3012 RMK A01 T02580202  RH  071%=      5-min Rain = 0
KOD1 141407Z 02005KT 26/20 A3012 RMK A01 T02580202  RH  071%=      5-min Rain = 0
KOD1 141408Z 03004KT 26/20 A3012 RMK A01 T02580203  RH  071%=      5-min Rain = 0
KOD1 141409Z 03005KT 26/20 A3012 RMK A01 T02600204  RH  071%=      5-min Rain = 0
KOD1 141410Z 02005KT 26/20 A3012 RMK A01 T02610203  RH  071%=      5-min Rain = 0
KOD1 141411Z 03004KT 26/20 A3012 RMK A01 T02600203  RH  070%=      5-min Rain = 0
KOD1 141412Z 02004KT 26/20 A3012 RMK A01 T02610203  RH  071%=      5-min Rain = 0
KOD1 141413Z 02005KT 26/20 A3012 RMK A01 T02610204  RH  071%=      5-min Rain = 0
KOD1 141414Z 02005KT 26/20 A3012 RMK A01 T02610204  RH  071%=      5-min Rain = 0
KOD1 141415Z 01004KT 26/20 A3012 RMK A01 T02620204  RH  070%=      5-min Rain = 0
KOD1 141416Z 04003KT 26/20 A3012 RMK A01 T02630204  RH  070%=      5-min Rain = 0
KOD1 141417Z 03004KT 26/21 A3012 RMK A01 T02640205  RH  070%=      5-min Rain = 0
KOD1 141418Z 02004KT 27/20 A3012 RMK A01 T02650203  RH  069%=      5-min Rain = 0
KOD1 141419Z 36004KT 27/20 A3012 RMK A01 T02650204  RH  069%=      5-min Rain = 0
KOD1 141420Z 03005KT 26/20 A3012 RMK A01 T02640204  RH  069%=      5-min Rain = 0
KOD1 141421Z 03003KT 26/21 A3012 RMK A01 T02640205  RH  070%=      5-min Rain = 0
KOD1 141422Z 04003KT 27/21 A3012 RMK A01 T02650205  RH  070%=      5-min Rain = 0
KOD1 141423Z 02002KT 27/21 A3012 RMK A01 T02650206  RH  070%=      5-min Rain = 0
KOD1 141424Z 36003KT 27/21 A3012 RMK A01 T02670206  RH  069%=      5-min Rain = 0
KOD1 141425Z 36002KT 27/21 A3012 RMK A01 T02670205  RH  069%=      5-min Rain = 0
KOD1 141426Z 01004KT 27/21 A3012 RMK A01 T02670205  RH  069%=      5-min Rain = 0
KOD1 141427Z 35003KT 27/21 A3012 RMK A01 T02660206  RH  069%=      5-min Rain = 0
KOD1 141428Z 01004KT 27/21 A3012 RMK A01 T02660205  RH  069%=      5-min Rain = 0
KOD1 141429Z 01004KT 27/21 A3012 RMK A01 T02660206  RH  070%=      5-min Rain = 0
KOD1 141430Z 03003KT 27/21 A3012 RMK A01 T02660207  RH  070%=      5-min Rain = 0
KOD1 141431Z 01003KT 27/21 A3012 RMK A01 T02670207  RH  070%=      5-min Rain = 0
KOD1 141432Z 02005KT 27/21 A3013 RMK A01 T02670207  RH  070%=      5-min Rain = 0
KOD1 141433Z 02003KT 27/21 A3013 RMK A01 T02660207  RH  070%=      5-min Rain = 0
KOD1 141434Z 01003KT 27/21 A3013 RMK A01 T02670207  RH  070%=      5-min Rain = 0
KOD1 141435Z 00003KT 27/21 A3013 RMK A01 T02680207  RH  069%=      5-min Rain = 0
KOD1 141436Z 34004KT 27/21 A3013 RMK A01 T02700209  RH  069%=      5-min Rain = 0
KOD1 141437Z 01003KT 27/21 A3013 RMK A01 T02700206  RH  068%=      5-min Rain = 0
KOD1 141438Z 05003KT 27/21 A3013 RMK A01 T02700207  RH  068%=      5-min Rain = 0
KOD1 141439Z 04002KT 27/21 A3013 RMK A01 T02720209  RH  068%=      5-min Rain = 0
KOD1 141440Z 00003KT 27/21 A3013 RMK A01 T02740208  RH  067%=      5-min Rain = 0
KOD1 141441Z 03004KT 27/21 A3012 RMK A01 T02740209  RH  068%=      5-min Rain = 0
KOD1 141442Z 01005KT 28/21 A3013 RMK A01 T02750210  RH  068%=      5-min Rain = 0
KOD1 141443Z 01005KT 28/21 A3013 RMK A01 T02750209  RH  067%=      5-min Rain = 0
KOD1 141444Z 01004KT 27/21 A3013 RMK A01 T02740209  RH  068%=      5-min Rain = 0
KOD1 141445Z 01004KT 28/21 A3013 RMK A01 T02750208  RH  067%=      5-min Rain = 0
KOD1 141446Z 03003KT 27/21 A3013 RMK A01 T02740208  RH  067%=      5-min Rain = 0
KOD1 141447Z 35005KT 27/21 A3013 RMK A01 T02740209  RH  068%=      5-min Rain = 0
KOD1 141448Z 35006KT 27/21 A3013 RMK A01 T02740209  RH  068%=      5-min Rain = 0
KOD1 141449Z 00007KT 27/21 A3013 RMK A01 T02730208  RH  068%=      5-min Rain = 0
KOD1 141450Z 00005KT 27/21 A3013 RMK A01 T02720208  RH  068%=      5-min Rain = 0
KOD1 141451Z 33005KT 27/21 A3013 RMK A01 T02720210  RH  069%=      5-min Rain = 0
KOD1 141452Z 33004KT 27/21 A3013 RMK A01 T02720209  RH  069%=      5-min Rain = 0
KOD1 141453Z 35006KT 27/21 A3013 RMK A01 T02710210  RH  069%=      5-min Rain = 0
KOD1 141454Z 35007KT 27/21 A3013 RMK A01 T02730211  RH  069%=      5-min Rain = 0
KOD1 141455Z 35008KT 27/21 A3014 RMK A01 T02740211  RH  069%=      5-min Rain = 0
KOD1 141456Z 00006KT 28/21 A3014 RMK A01 T02750211  RH  068%=      5-min Rain = 0
KOD1 141457Z 34008KT 28/21 A3014 RMK A01 T02760211  RH  068%=      5-min Rain = 0
KOD1 141458Z 34007KT 28/21 A3014 RMK A01 T02760210  RH  067%=      5-min Rain = 0
KOD1 141459Z 35006KT 28/21 A3014 RMK A01 T02760211  RH  067%=      5-min Rain = 0
KOD1 141500Z 35008KT 28/21 A3014 RMK A01 T02780211  RH  067%=      5-min Rain = 0
KOD1 141501Z 33006KT 28/21 A3014 RMK A01 T02790211  RH  067%=      5-min Rain = 0
KOD1 141502Z 33007KT 28/21 A3014 RMK A01 T02800212  RH  066%=      5-min Rain = 0
KOD1 141503Z 33007KT 28/21 A3014 RMK A01 T02820212  RH  066%=      5-min Rain = 0
KOD1 141504Z 33008KT 28/21 A3014 RMK A01 T02800210  RH  066%=      5-min Rain = 0
KOD1 141505Z 34007KT 28/21 A3014 RMK A01 T02780211  RH  067%=      5-min Rain = 0
KOD1 141506Z 34008KT 28/21 A3014 RMK A01 T02790212  RH  067%=      5-min Rain = 0
KOD1 141507Z 34011KT 28/21 A3014 RMK A01 T02800211  RH  066%=      5-min Rain = 0
KOD1 141508Z 36008KT 28/21 A3014 RMK A01 T02780212  RH  067%=      5-min Rain = 0
KOD1 141509Z 35008KT 28/21 A3014 RMK A01 T02800213  RH  067%=      5-min Rain = 0
KOD1 141510Z 36008KT 28/21 A3014 RMK A01 T02800211  RH  066%=      5-min Rain = 0
KOD1 141511Z 34009KT 28/21 A3014 RMK A01 T02810211  RH  066%=      5-min Rain = 0
KOD1 141512Z 34006KT 28/21 A3014 RMK A01 T02790209  RH  066%=      5-min Rain = 0
KOD1 141513Z 33008G14KT 28/21 A3014 RMK A01 T02800212  RH  066%=      5-min Rain = 0
KOD1 141514Z 34008KT 28/21 A3014 RMK A01 T02810210  RH  065%=      5-min Rain = 0
KOD1 141515Z 33008KT 28/21 A3014 RMK A01 T02810211  RH  066%=      5-min Rain = 0
KOD1 141516Z 33008KT 28/21 A3014 RMK A01 T02810209  RH  065%=      5-min Rain = 0
KOD1 141517Z 34008KT 28/21 A3014 RMK A01 T02820211  RH  066%=      5-min Rain = 0
KOD1 141518Z 32008KT 28/21 A3014 RMK A01 T02820211  RH  065%=      5-min Rain = 0
KOD1 141519Z 34008KT 28/21 A3014 RMK A01 T02820211  RH  065%=      5-min Rain = 0
KOD1 141520Z 34009KT 28/21 A3014 RMK A01 T02810210  RH  065%=      5-min Rain = 0
KOD1 141521Z 34008KT 28/21 A3014 RMK A01 T02830212  RH  065%=      5-min Rain = 0
KOD1 141522Z 35006KT 28/21 A3014 RMK A01 T02840210  RH  064%=      5-min Rain = 0
KOD1 141523Z 34006KT 28/21 A3014 RMK A01 T02830211  RH  065%=      5-min Rain = 0
KOD1 141524Z 34009KT 28/21 A3014 RMK A01 T02830210  RH  065%=      5-min Rain = 0
KOD1 141525Z 35009KT 28/21 A3014 RMK A01 T02820210  RH  065%=      5-min Rain = 0
KOD1 141526Z 33010KT 28/21 A3014 RMK A01 T02820211  RH  065%=      5-min Rain = 0
KOD1 141527Z 34011KT 28/21 A3014 RMK A01 T02830210  RH  065%=      5-min Rain = 0
KOD1 141528Z 34008KT 28/21 A3014 RMK A01 T02810210  RH  065%=      5-min Rain = 0
KOD1 141529Z 33010KT 28/21 A3014 RMK A01 T02810210  RH  066%=      5-min Rain = 0
KOD1 141530Z 34008KT 28/21 A3014 RMK A01 T02810210  RH  065%=      5-min Rain = 0
KOD1 141531Z 34005KT 28/21 A3014 RMK A01 T02800209  RH  066%=      5-min Rain = 0
KOD1 141532Z 33004KT 28/21 A3014 RMK A01 T02800210  RH  066%=      5-min Rain = 0
KOD1 141533Z 33006KT 29/21 A3014 RMK A01 T02850214  RH  065%=      5-min Rain = 0
KOD1 141534Z 33010KT 29/21 A3014 RMK A01 T02880212  RH  063%=      5-min Rain = 0
KOD1 141535Z 35010KT 29/21 A3014 RMK A01 T02870211  RH  064%=      5-min Rain = 0
KOD1 141536Z 00007KT 29/21 A3015 RMK A01 T02850210  RH  064%=      5-min Rain = 0
KOD1 141537Z 01007KT 28/21 A3015 RMK A01 T02830210  RH  065%=      5-min Rain = 0
KOD1 141538Z 34006KT 29/21 A3015 RMK A01 T02850213  RH  065%=      5-min Rain = 0
KOD1 141539Z 35009KT 29/21 A3015 RMK A01 T02870211  RH  064%=      5-min Rain = 0
KOD1 141540Z 34010KT 29/21 A3015 RMK A01 T02860211  RH  064%=      5-min Rain = 0
KOD1 141541Z 35010KT 29/21 A3015 RMK A01 T02850210  RH  064%=      5-min Rain = 0
KOD1 141542Z 00008KT 29/21 A3015 RMK A01 T02870212  RH  064%=      5-min Rain = 0
KOD1 141543Z 00011KT 29/21 A3015 RMK A01 T02890212  RH  063%=      5-min Rain = 0
KOD1 141544Z 00008KT 29/21 A3015 RMK A01 T02870210  RH  063%=      5-min Rain = 0
KOD1 141545Z 00009KT 29/21 A3015 RMK A01 T02850210  RH  064%=      5-min Rain = 0
KOD1 141546Z 02010KT 29/21 A3015 RMK A01 T02860214  RH  065%=      5-min Rain = 0
KOD1 141547Z 01011KT 29/21 A3015 RMK A01 T02900213  RH  063%=      5-min Rain = 0
KOD1 141548Z 01009KT 29/21 A3015 RMK A01 T02900213  RH  063%=      5-min Rain = 0
KOD1 141549Z 02010KT 29/21 A3015 RMK A01 T02910213  RH  063%=      5-min Rain = 0
KOD1 141550Z 01009KT 29/21 A3015 RMK A01 T02900212  RH  063%=      5-min Rain = 0
KOD1 141551Z 01007KT 29/21 A3015 RMK A01 T02880211  RH  063%=      5-min Rain = 0
KOD1 141552Z 00009KT 29/21 A3015 RMK A01 T02870212  RH  064%=      5-min Rain = 0
KOD1 141553Z 36010KT 29/21 A3015 RMK A01 T02900214  RH  064%=      5-min Rain = 0
KOD1 141554Z 35009KT 29/21 A3015 RMK A01 T02900212  RH  063%=      5-min Rain = 0
KOD1 141555Z 36007KT 29/21 A3015 RMK A01 T02880212  RH  064%=      5-min Rain = 0
KOD1 141556Z 01010KT 29/21 A3015 RMK A01 T02890214  RH  064%=      5-min Rain = 0
KOD1 141557Z 01009KT 29/21 A3015 RMK A01 T02890213  RH  063%=      5-min Rain = 0
KOD1 141558Z 02008KT 29/21 A3015 RMK A01 T02890213  RH  064%=      5-min Rain = 0
KOD1 141559Z 02008KT 29/21 A3015 RMK A01 T02870212  RH  064%=      5-min Rain = 0
KOD1 141600Z 00008KT 29/21 A3015 RMK A01 T02870213  RH  064%=      5-min Rain = 0
KOD1 141601Z 00008KT 29/21 A3014 RMK A01 T02860213  RH  065%=      5-min Rain = 0
KOD1 141602Z 36009KT 29/21 A3014 RMK A01 T02870213  RH  064%=      5-min Rain = 0
KOD1 141603Z 36010KT 29/22 A3014 RMK A01 T02890215  RH  064%=      5-min Rain = 0
KOD1 141604Z 02010KT 29/21 A3014 RMK A01 T02890212  RH  063%=      5-min Rain = 0
KOD1 141605Z 03008KT 29/21 A3014 RMK A01 T02880213  RH  064%=      5-min Rain = 0
KOD1 141606Z 04007KT 29/21 A3014 RMK A01 T02880213  RH  064%=      5-min Rain = 0
KOD1 141607Z 02006KT 29/21 A3014 RMK A01 T02880213  RH  064%=      5-min Rain = 0
KOD1 141608Z 35008KT 29/22 A3014 RMK A01 T02900215  RH  064%=      5-min Rain = 0
KOD1 141609Z 35007KT 29/21 A3014 RMK A01 T02900213  RH  063%=      5-min Rain = 0
KOD1 141610Z 36010KT 29/21 A3014 RMK A01 T02890214  RH  064%=      5-min Rain = 0
KOD1 141611Z 01009KT 29/21 A3014 RMK A01 T02890213  RH  064%=      5-min Rain = 0
KOD1 141612Z 01009KT 29/22 A3014 RMK A01 T02910215  RH  063%=      5-min Rain = 0
KOD1 141613Z 01010KT 29/21 A3014 RMK A01 T02920214  RH  063%=      5-min Rain = 0
KOD1 141614Z 00006KT 29/21 A3014 RMK A01 T02910212  RH  062%=      5-min Rain = 0
KOD1 141615Z 01006KT 29/21 A3014 RMK A01 T02920212  RH  062%=      5-min Rain = 0
KOD1 141616Z 01009KT 29/21 A3014 RMK A01 T02920213  RH  062%=      5-min Rain = 0
KOD1 141617Z 02009KT 29/21 A3014 RMK A01 T02920213  RH  062%=      5-min Rain = 0
KOD1 141618Z 01008G13KT 30/21 A3014 RMK A01 T02950213  RH  061%=      5-min Rain = 0
KOD1 141619Z 01010KT 30/21 A3014 RMK A01 T02950213  RH  061%=      5-min Rain = 0
KOD1 141620Z 02008KT 29/21 A3014 RMK A01 T02930213  RH  062%=      5-min Rain = 0
KOD1 141621Z 35009KT 30/22 A3014 RMK A01 T02950215  RH  062%=      5-min Rain = 0
KOD1 141622Z 35011KT 30/22 A3014 RMK A01 T02980215  RH  061%=      5-min Rain = 0
KOD1 141623Z 36008KT 30/22 A3014 RMK A01 T02980215  RH  061%=      5-min Rain = 0
KOD1 141624Z 01007KT 30/21 A3014 RMK A01 T02980214  RH  061%=      5-min Rain = 0
KOD1 141625Z 01008KT 30/22 A3014 RMK A01 T02980215  RH  061%=      5-min Rain = 0
KOD1 141626Z 01011KT 30/21 A3014 RMK A01 T02990214  RH  060%=      5-min Rain = 0
KOD1 141627Z 01008KT 30/21 A3014 RMK A01 T03010213  RH  059%=      5-min Rain = 0
KOD1 141628Z 01011KT 30/21 A3014 RMK A01 T03010214  RH  060%=      5-min Rain = 0
KOD1 141629Z 36009KT 30/21 A3014 RMK A01 T03000212  RH  059%=      5-min Rain = 0
KOD1 141630Z 35005KT 30/21 A3014 RMK A01 T02990212  RH  060%=      5-min Rain = 0
KOD1 141631Z 01007KT 30/21 A3014 RMK A01 T02980212  RH  060%=      5-min Rain = 0
KOD1 141632Z 34006KT 30/22 A3014 RMK A01 T03000215  RH  060%=      5-min Rain = 0
KOD1 141633Z 35009G15KT 31/22 A3014 RMK A01 T03050217  RH  059%=      5-min Rain = 0
KOD1 141634Z 01009G14KT 31/22 A3014 RMK A01 T03080217  RH  058%=      5-min Rain = 0
KOD1 141635Z 01008KT 31/22 A3014 RMK A01 T03050215  RH  059%=      5-min Rain = 0
KOD1 141636Z 00007KT 31/22 A3014 RMK A01 T03070217  RH  059%=      5-min Rain = 0
KOD1 141637Z 00009KT 31/22 A3014 RMK A01 T03070216  RH  058%=      5-min Rain = 0
KOD1 141638Z 00009KT 31/22 A3014 RMK A01 T03070217  RH  059%=      5-min Rain = 0
KOD1 141639Z 02011KT 31/22 A3014 RMK A01 T03070215  RH  058%=      5-min Rain = 0
KOD1 141640Z 02008KT 30/22 A3014 RMK A01 T03030215  RH  059%=      5-min Rain = 0
KOD1 141641Z 02007KT 30/22 A3013 RMK A01 T03030215  RH  059%=      5-min Rain = 0
KOD1 141642Z 01010KT 31/22 A3013 RMK A01 T03050215  RH  059%=      5-min Rain = 0
KOD1 141643Z 36008KT 30/21 A3013 RMK A01 T03010213  RH  060%=      5-min Rain = 0
KOD1 141644Z 35009KT 30/22 A3013 RMK A01 T02990216  RH  061%=      5-min Rain = 0
KOD1 141645Z 01012KT 30/22 A3013 RMK A01 T03010215  RH  060%=      5-min Rain = 0
KOD1 141646Z 02008KT 30/21 A3013 RMK A01 T02980211  RH  060%=      5-min Rain = 0
KOD1 141647Z 01006KT 30/21 A3013 RMK A01 T02980213  RH  060%=      5-min Rain = 0
KOD1 141648Z 36006KT 30/22 A3013 RMK A01 T03020215  RH  060%=      5-min Rain = 0
KOD1 141649Z 02009KT 31/22 A3013 RMK A01 T03050215  RH  059%=      5-min Rain = 0
KOD1 141650Z 02008KT 31/22 A3013 RMK A01 T03050215  RH  059%=      5-min Rain = 0
KOD1 141651Z 00007KT 31/22 A3013 RMK A01 T03070217  RH  059%=      5-min Rain = 0
KOD1 141652Z 35008KT 31/22 A3013 RMK A01 T03090218  RH  058%=      5-min Rain = 0
KOD1 141653Z 35009KT 31/22 A3012 RMK A01 T03070216  RH  058%=      5-min Rain = 0
KOD1 141654Z 34007KT 31/22 A3013 RMK A01 T03060216  RH  059%=      5-min Rain = 0
KOD1 141655Z 01006KT 30/22 A3013 RMK A01 T03040215  RH  059%=      5-min Rain = 0
KOD1 141656Z 34008KT 31/22 A3012 RMK A01 T03050217  RH  059%=      5-min Rain = 0
KOD1 141657Z 34009KT 31/22 A3012 RMK A01 T03060216  RH  059%=      5-min Rain = 0
KOD1 141658Z 00009KT 31/22 A3012 RMK A01 T03070217  RH  059%=      5-min Rain = 0
KOD1 141659Z 02009KT 31/21 A3013 RMK A01 T03090214  RH  057%=      5-min Rain = 0
KOD1 141700Z 04010KT 31/21 A3013 RMK A01 T03080212  RH  057%=      5-min Rain = 0
KOD1 141701Z 04009KT 31/21 A3012 RMK A01 T03060214  RH  058%=      5-min Rain = 0
KOD1 141702Z 05009KT 31/21 A3012 RMK A01 T03060211  RH  057%=      5-min Rain = 0
KOD1 141703Z 06006KT 31/21 A3012 RMK A01 T03080212  RH  057%=      5-min Rain = 0
KOD1 141704Z 05010KT 31/21 A3012 RMK A01 T03110214  RH  056%=      5-min Rain = 0
KOD1 141705Z 03010KT 31/21 A3012 RMK A01 T03130212  RH  055%=      5-min Rain = 0
KOD1 141706Z 04009KT 31/21 A3012 RMK A01 T03120212  RH  055%=      5-min Rain = 0
KOD1 141707Z 05006KT 31/21 A3012 RMK A01 T03110211  RH  055%=      5-min Rain = 0
KOD1 141708Z 03010KT 31/21 A3011 RMK A01 T03100212  RH  056%=      5-min Rain = 0
KOD1 141709Z 02009KT 31/21 A3011 RMK A01 T03110210  RH  055%=      5-min Rain = 0
KOD1 141710Z 02009KT 31/21 A3011 RMK A01 T03120209  RH  054%=      5-min Rain = 0
KOD1 141711Z 02006KT 31/21 A3011 RMK A01 T03080209  RH  056%=      5-min Rain = 0
KOD1 141712Z 00007KT 31/21 A3011 RMK A01 T03070209  RH  056%=      5-min Rain = 0
KOD1 141713Z 02006KT 31/21 A3011 RMK A01 T03070209  RH  056%=      5-min Rain = 0
KOD1 141714Z 01007KT 31/21 A3011 RMK A01 T03050210  RH  057%=      5-min Rain = 0
KOD1 141715Z 04009KT 31/21 A3011 RMK A01 T03060212  RH  057%=      5-min Rain = 0
KOD1 141716Z 05010KT 31/21 A3011 RMK A01 T03100211  RH  056%=      5-min Rain = 0
KOD1 141717Z 04008KT 31/21 A3011 RMK A01 T03090210  RH  055%=      5-min Rain = 0
KOD1 141718Z 00008KT 31/21 A3011 RMK A01 T03090211  RH  056%=      5-min Rain = 0
KOD1 141719Z 02008KT 31/21 A3011 RMK A01 T03080211  RH  056%=      5-min Rain = 0
KOD1 141720Z 02006KT 31/21 A3011 RMK A01 T03090210  RH  056%=      5-min Rain = 0
KOD1 141721Z 03005KT 31/21 A3011 RMK A01 T03080210  RH  056%=      5-min Rain = 0
KOD1 141722Z 01004KT 31/21 A3011 RMK A01 T03110212  RH  056%=      5-min Rain = 0
KOD1 141723Z 01006KT 31/21 A3011 RMK A01 T03110210  RH  055%=      5-min Rain = 0
KOD1 141724Z 01009KT 31/21 A3011 RMK A01 T03100210  RH  055%=      5-min Rain = 0
KOD1 141725Z 02008KT 31/21 A3011 RMK A01 T03130210  RH  054%=      5-min Rain = 0
KOD1 141726Z 02009KT 31/21 A3011 RMK A01 T03110209  RH  054%=      5-min Rain = 0
KOD1 141727Z 01008KT 31/21 A3011 RMK A01 T03100207  RH  054%=      5-min Rain = 0
KOD1 141728Z 01008KT 31/21 A301 RMK A01 T03080205  RH  054%=      5-min Rain = 0
KOD1 141729Z 01009KT 31/21 A301 RMK A01 T03090208  RH  055%=      5-min Rain = 0
KOD1 141730Z 01008KT 31/21 A301 RMK A01 T03090210  RH  056%=      5-min Rain = 0
KOD1 141731Z 01005KT 31/21 A301 RMK A01 T03080209  RH  056%=      5-min Rain = 0
KOD1 141732Z 01006KT 31/21 A301 RMK A01 T03090211  RH  056%=      5-min Rain = 0
KOD1 141733Z 01004KT 31/21 A301 RMK A01 T03100211  RH  056%=      5-min Rain = 0
KOD1 141734Z 02006G11KT 31/21 A301 RMK A01 T03120213  RH  055%=      5-min Rain = 0
KOD1 141735Z 02004KT 31/21 A301 RMK A01 T03140211  RH  055%=      5-min Rain = 0
KOD1 141736Z 03006KT 31/21 A301 RMK A01 T03140213  RH  055%=      5-min Rain = 0
KOD1 141737Z 03009KT 32/21 A301 RMK A01 T03180214  RH  054%=      5-min Rain = 0
KOD1 141738Z 03008KT 32/21 A301 RMK A01 T03200211  RH  053%=      5-min Rain = 0
KOD1 141739Z 03007KT 32/21 A301 RMK A01 T03160209  RH  053%=      5-min Rain = 0
KOD1 141740Z 05005KT 32/21 A301 RMK A01 T03150211  RH  054%=      5-min Rain = 0
KOD1 141741Z 04007KT 32/21 A301 RMK A01 T03160211  RH  054%=      5-min Rain = 0
KOD1 141742Z 02008KT 32/21 A301 RMK A01 T03170210  RH  053%=      5-min Rain = 0
KOD1 141743Z 01009KT 32/21 A301 RMK A01 T03190210  RH  053%=      5-min Rain = 0
KOD1 141744Z 02009KT 32/21 A301 RMK A01 T03200210  RH  052%=      5-min Rain = 0
KOD1 141745Z 03008KT 32/21 A301 RMK A01 T03180208  RH  052%=      5-min Rain = 0
KOD1 141746Z 01005KT 32/21 A301 RMK A01 T03160206  RH  052%=      5-min Rain = 0
KOD1 141747Z 02007KT 32/21 A3009 RMK A01 T03170208  RH  053%=      5-min Rain = 0
KOD1 141748Z 05008KT 32/21 A301 RMK A01 T03210207  RH  051%=      5-min Rain = 0
KOD1 141749Z 02005KT 32/21 A301 RMK A01 T03210207  RH  051%=      5-min Rain = 0
KOD1 141750Z 01005KT 32/21 A301 RMK A01 T03210205  RH  050%=      5-min Rain = 0
KOD1 141751Z 01008KT 32/21 A301 RMK A01 T03200206  RH  051%=      5-min Rain = 0
KOD1 141752Z 01005KT 32/21 A301 RMK A01 T03180205  RH  051%=      5-min Rain = 0
KOD1 141753Z 06003KT 32/21 A301 RMK A01 T03190208  RH  052%=      5-min Rain = 0
KOD1 141754Z 02007KT 32/21 A301 RMK A01 T03210206  RH  051%=      5-min Rain = 0
KOD1 141755Z 01008KT 32/21 A301 RMK A01 T03200206  RH  051%=      5-min Rain = 0
KOD1 141756Z 02006KT 32/21 A301 RMK A01 T03190205  RH  051%=      5-min Rain = 0
KOD1 141757Z 02005KT 32/21 A301 RMK A01 T03160206  RH  052%=      5-min Rain = 0
KOD1 141758Z 03007KT 32/20 A301 RMK A01 T03150204  RH  052%=      5-min Rain = 0
KOD1 141759Z 03003KT 32/21 A301 RMK A01 T03150205  RH  052%=      5-min Rain = 0
KOD1 141800Z 36007KT 32/21 A3009 RMK A01 T03160206  RH  052%=      5-min Rain = 0
KOD1 141801Z 33003KT 32/21 A3009 RMK A01 T03170206  RH  052%=      5-min Rain = 0
KOD1 141802Z 00007KT 32/21 A3009 RMK A01 T03200208  RH  052%=      5-min Rain = 0
KOD1 141803Z 00008KT 32/21 A3009 RMK A01 T03220207  RH  051%=      5-min Rain = 0
KOD1 141804Z 36009KT 32/21 A301 RMK A01 T03210205  RH  051%=      5-min Rain = 0
KOD1 141805Z 35007KT 32/21 A301 RMK A01 T03180206  RH  052%=      5-min Rain = 0
KOD1 141806Z 33005KT 32/20 A3009 RMK A01 T03180204  RH  051%=      5-min Rain = 0
KOD1 141807Z 36008KT 32/20 A3009 RMK A01 T03180201  RH  050%=      5-min Rain = 0
KOD1 141808Z 35007KT 32/20 A3009 RMK A01 T03170198  RH  049%=      5-min Rain = 0
KOD1 141809Z 35006KT 32/20 A3009 RMK A01 T03190203  RH  050%=      5-min Rain = 0
KOD1 141810Z 00008KT 32/21 A3009 RMK A01 T03200205  RH  051%=      5-min Rain = 0
KOD1 141811Z 34004KT 32/21 A3009 RMK A01 T03170206  RH  052%=      5-min Rain = 0
KOD1 141812Z 35005KT 32/21 A3009 RMK A01 T03180207  RH  052%=      5-min Rain = 0
KOD1 141813Z 06006KT 32/21 A3009 RMK A01 T03190208  RH  052%=      5-min Rain = 0
KOD1 141814Z 06006KT 32/21 A3009 RMK A01 T03230210  RH  051%=      5-min Rain = 0
KOD1 141815Z 04006KT 33/21 A3009 RMK A01 T03260208  RH  050%=      5-min Rain = 0
KOD1 141816Z 03006KT 33/21 A3009 RMK A01 T03260207  RH  050%=      5-min Rain = 0
KOD1 141817Z 02005KT 33/21 A3009 RMK A01 T03260206  RH  049%=      5-min Rain = 0
KOD1 141818Z 02008KT 33/21 A3009 RMK A01 T03270207  RH  049%=      5-min Rain = 0
KOD1 141819Z 01007KT 33/21 A3009 RMK A01 T03280206  RH  049%=      5-min Rain = 0
KOD1 141820Z 02009KT 33/21 A3009 RMK A01 T03280207  RH  049%=      5-min Rain = 0
KOD1 141821Z 03008KT 33/21 A3009 RMK A01 T03280207  RH  049%=      5-min Rain = 0
KOD1 141822Z 03007KT 33/21 A3009 RMK A01 T03260205  RH  049%=      5-min Rain = 0
KOD1 141823Z 03009KT 33/21 A3009 RMK A01 T03260205  RH  049%=      5-min Rain = 0
KOD1 141824Z 02005KT 33/20 A3009 RMK A01 T03270202  RH  048%=      5-min Rain = 0
KOD1 141825Z 01003KT 33/20 A3009 RMK A01 T03250203  RH  049%=      5-min Rain = 0
KOD1 141826Z 02003KT 33/20 A3009 RMK A01 T03250203  RH  049%=      5-min Rain = 0
KOD1 141827Z 01007KT 33/21 A3009 RMK A01 T03270206  RH  049%=      5-min Rain = 0
KOD1 141828Z 01010KT 33/21 A3009 RMK A01 T03310205  RH  048%=      5-min Rain = 0
KOD1 141829Z 35010KT 33/20 A3009 RMK A01 T03290204  RH  048%=      5-min Rain = 0
KOD1 141830Z 36008KT 33/21 A3009 RMK A01 T03300205  RH  048%=      5-min Rain = 0
KOD1 141831Z 00007KT 33/21 A3009 RMK A01 T03300205  RH  048%=      5-min Rain = 0
KOD1 141832Z 04006KT 33/21 A3009 RMK A01 T03290208  RH  049%=      5-min Rain = 0
KOD1 141833Z 03007G14KT 33/21 A3009 RMK A01 T03300208  RH  049%=      5-min Rain = 0
KOD1 141834Z 05010KT 33/21 A3009 RMK A01 T03300207  RH  048%=      5-min Rain = 0
KOD1 141835Z 05009KT 33/21 A3009 RMK A01 T03320209  RH  049%=      5-min Rain = 0
KOD1 141836Z 04008KT 33/21 A3009 RMK A01 T03320208  RH  048%=      5-min Rain = 0
KOD1 141837Z 02007KT 33/21 A3008 RMK A01 T03320208  RH  048%=      5-min Rain = 0
KOD1 141838Z 00007KT 33/21 A3008 RMK A01 T03310206  RH  048%=      5-min Rain = 0
KOD1 141839Z 35010KT 33/21 A3008 RMK A01 T03310209  RH  049%=      5-min Rain = 0
KOD1 141840Z 01012KT 33/21 A3009 RMK A01 T03310205  RH  048%=      5-min Rain = 0
KOD1 141841Z 02010KT 33/21 A3009 RMK A01 T03310207  RH  048%=      5-min Rain = 0
KOD1 141842Z 04006KT 33/20 A3009 RMK A01 T03310204  RH  047%=      5-min Rain = 0
KOD1 141843Z 02007KT 33/20 A3009 RMK A01 T03300204  RH  048%=      5-min Rain = 0
KOD1 141844Z 02006KT 33/21 A3008 RMK A01 T03300206  RH  048%=      5-min Rain = 0
KOD1 141845Z 01007KT 33/21 A3008 RMK A01 T03330209  RH  048%=      5-min Rain = 0
KOD1 141846Z 02010KT 34/21 A3009 RMK A01 T03350207  RH  047%=      5-min Rain = 0
KOD1 141847Z 03009KT 33/21 A3009 RMK A01 T03320205  RH  047%=      5-min Rain = 0
KOD1 141848Z 01008KT 33/21 A3009 RMK A01 T03320205  RH  047%=      5-min Rain = 0
KOD1 141849Z 02007KT 34/21 A3008 RMK A01 T03350205  RH  047%=      5-min Rain = 0
KOD1 141850Z 02009KT 33/20 A3009 RMK A01 T03340202  RH  046%=      5-min Rain = 0
KOD1 141851Z 00006KT 33/20 A3008 RMK A01 T03340202  RH  046%=      5-min Rain = 0
KOD1 141852Z 00010KT 33/21 A3008 RMK A01 T03330205  RH  047%=      5-min Rain = 0
KOD1 141853Z 01010KT 33/21 A3008 RMK A01 T03340206  RH  047%=      5-min Rain = 0
KOD1 141854Z 03009KT 34/20 A3008 RMK A01 T03360203  RH  046%=      5-min Rain = 0
KOD1 141855Z 00006KT 34/20 A3008 RMK A01 T03350203  RH  046%=      5-min Rain = 0
KOD1 141856Z 02008KT 33/20 A3008 RMK A01 T03320201  RH  046%=      5-min Rain = 0
KOD1 141857Z 03007KT 33/20 A3008 RMK A01 T03300201  RH  047%=      5-min Rain = 0
KOD1 141858Z 03009KT 33/21 A3008 RMK A01 T03330207  RH  048%=      5-min Rain = 0
KOD1 141859Z 05009KT 34/21 A3008 RMK A01 T03370207  RH  047%=      5-min Rain = 0
KOD1 141900Z 04006KT 33/20 A3008 RMK A01 T03340204  RH  047%=      5-min Rain = 0
KOD1 141901Z 03009KT 33/20 A3008 RMK A01 T03290204  RH  048%=      5-min Rain = 0
KOD1 141902Z 03008KT 33/20 A3008 RMK A01 T03260200  RH  048%=      5-min Rain = 0
KOD1 141903Z 04009KT 33/20 A3008 RMK A01 T03290202  RH  047%=      5-min Rain = 0
KOD1 141904Z 05010KT 33/20 A3008 RMK A01 T03310203  RH  047%=      5-min Rain = 0
KOD1 141905Z 03009KT 33/20 A3008 RMK A01 T03310203  RH  047%=      5-min Rain = 0
KOD1 141906Z 01007KT 33/20 A3007 RMK A01 T03340204  RH  047%=      5-min Rain = 0
KOD1 141907Z 00007KT 33/20 A3007 RMK A01 T03340203  RH  046%=      5-min Rain = 0
KOD1 141908Z 00008KT 34/20 A3007 RMK A01 T03350203  RH  046%=      5-min Rain = 0
KOD1 141909Z 36004KT 33/20 A3007 RMK A01 T03340202  RH  046%=      5-min Rain = 0
KOD1 141910Z 35007KT 33/20 A3007 RMK A01 T03340204  RH  046%=      5-min Rain = 0
KOD1 141911Z 03012KT 33/20 A3007 RMK A01 T03340203  RH  046%=      5-min Rain = 0
KOD1 141912Z 03010KT 33/20 A3007 RMK A01 T03310202  RH  047%=      5-min Rain = 0
KOD1 141913Z 03010KT 33/20 A3007 RMK A01 T03280202  RH  048%=      5-min Rain = 0
KOD1 141914Z 03009KT 33/20 A3007 RMK A01 T03280202  RH  048%=      5-min Rain = 0
KOD1 141915Z 05006KT 33/20 A3007 RMK A01 T03310204  RH  047%=      5-min Rain = 0
KOD1 141916Z 06005KT 33/20 A3007 RMK A01 T03330203  RH  047%=      5-min Rain = 0
KOD1 141917Z 04005KT 33/20 A3007 RMK A01 T03330203  RH  046%=      5-min Rain = 0
KOD1 141918Z 36007KT 34/20 A3007 RMK A01 T03360204  RH  046%=      5-min Rain = 0
KOD1 141919Z 00009KT 34/20 A3007 RMK A01 T03390203  RH  045%=      5-min Rain = 0
KOD1 141920Z 03007KT 34/20 A3007 RMK A01 T03380200  RH  044%=      5-min Rain = 0
KOD1 141921Z 05007KT 33/20 A3007 RMK A01 T03340200  RH  045%=      5-min Rain = 0
KOD1 141922Z 06008KT 33/20 A3007 RMK A01 T03320200  RH  046%=      5-min Rain = 0
KOD1 141923Z 01009KT 33/20 A3007 RMK A01 T03340201  RH  046%=      5-min Rain = 0
KOD1 141924Z 36007KT 34/20 A3007 RMK A01 T03370201  RH  045%=      5-min Rain = 0
KOD1 141925Z 05007KT 34/20 A3007 RMK A01 T03420204  RH  045%=      5-min Rain = 0
KOD1 141926Z 07007KT 34/20 A3006 RMK A01 T03400203  RH  045%=      5-min Rain = 0
KOD1 141927Z 08006KT 34/20 A3006 RMK A01 T03350202  RH  046%=      5-min Rain = 0
KOD1 141928Z 04006G12KT 34/20 A3006 RMK A01 T03350204  RH  046%=      5-min Rain = 0
KOD1 141929Z 03007G12KT 34/21 A3006 RMK A01 T03410205  RH  045%=      5-min Rain = 0
KOD1 141930Z 05004KT 35/20 A3006 RMK A01 T03450204  RH  044%=      5-min Rain = 0
KOD1 141931Z 07003KT 34/20 A3006 RMK A01 T03430202  RH  044%=      5-min Rain = 0
KOD1 141932Z 07005KT 34/21 A3006 RMK A01 T03420206  RH  045%=      5-min Rain = 0
KOD1 141933Z 05011KT 34/21 A3005 RMK A01 T03420205  RH  045%=      5-min Rain = 0
KOD1 141934Z 04009KT 34/21 A3005 RMK A01 T03410206  RH  045%=      5-min Rain = 0
KOD1 141935Z 04011KT 34/21 A3005 RMK A01 T03420206  RH  045%=      5-min Rain = 0
KOD1 141936Z 02009KT 34/20 A3005 RMK A01 T03390202  RH  045%=      5-min Rain = 0
KOD1 141937Z 04008KT 34/20 A3005 RMK A01 T03380203  RH  045%=      5-min Rain = 0
KOD1 141938Z 02006KT 34/20 A3005 RMK A01 T03380202  RH  045%=      5-min Rain = 0
KOD1 141939Z 05008KT 34/20 A3005 RMK A01 T03360202  RH  045%=      5-min Rain = 0
KOD1 141940Z 03008KT 34/20 A3005 RMK A01 T03350201  RH  045%=      5-min Rain = 0
KOD1 141941Z 04008KT 34/20 A3005 RMK A01 T03380201  RH  045%=      5-min Rain = 0
KOD1 141942Z 05005KT 34/20 A3005 RMK A01 T03390197  RH  043%=      5-min Rain = 0
KOD1 141943Z 05006KT 34/20 A3005 RMK A01 T03360198  RH  044%=      5-min Rain = 0
KOD1 141944Z 07005KT 34/20 A3005 RMK A01 T03360198  RH  044%=      5-min Rain = 0
KOD1 141945Z 04008KT 34/20 A3005 RMK A01 T03380202  RH  045%=      5-min Rain = 0
KOD1 141946Z 03006KT 34/20 A3005 RMK A01 T03410200  RH  044%=      5-min Rain = 0
KOD1 141947Z 02009KT 34/20 A3005 RMK A01 T03370201  RH  045%=      5-min Rain = 0
KOD1 141948Z 02008KT 34/20 A3005 RMK A01 T03360204  RH  046%=      5-min Rain = 0
KOD1 141949Z 03013KT 34/20 A3005 RMK A01 T03360204  RH  046%=      5-min Rain = 0
KOD1 141950Z 02009KT 33/20 A3005 RMK A01 T03330201  RH  046%=      5-min Rain = 0
KOD1 141951Z 02009KT 33/20 A3005 RMK A01 T03300200  RH  047%=      5-min Rain = 0
KOD1 141952Z 03010KT 33/20 A3005 RMK A01 T03300200  RH  047%=      5-min Rain = 0
KOD1 141953Z 02010KT 33/20 A3005 RMK A01 T03320200  RH  046%=      5-min Rain = 0
KOD1 141954Z 01007KT 33/20 A3005 RMK A01 T03340200  RH  045%=      5-min Rain = 0
KOD1 141955Z 00006KT 34/20 A3005 RMK A01 T03370202  RH  045%=      5-min Rain = 0
KOD1 141956Z 02007G12KT 34/20 A3005 RMK A01 T03390202  RH  045%=      5-min Rain = 0
KOD1 141957Z 04010G15KT 34/20 A3005 RMK A01 T03420203  RH  044%=      5-min Rain = 0
KOD1 141958Z 03012KT 34/20 A3005 RMK A01 T03420200  RH  043%=      5-min Rain = 0
KOD1 141959Z 04011KT 34/20 A3005 RMK A01 T03390200  RH  044%=      5-min Rain = 0
KOD1 142000Z 04011KT 34/20 A3005 RMK A01 T03400200  RH  044%=      5-min Rain = 0
KOD1 142001Z 03010KT 34/20 A3005 RMK A01 T03380198  RH  044%=      5-min Rain = 0
KOD1 142002Z 04007KT 34/20 A3005 RMK A01 T03360197  RH  044%=      5-min Rain = 0
KOD1 142003Z 04008KT 34/20 A3005 RMK A01 T03390199  RH  044%=      5-min Rain = 0
KOD1 142004Z 03006KT 34/20 A3005 RMK A01 T03400198  RH  043%=      5-min Rain = 0
KOD1 142005Z 03008KT 34/20 A3005 RMK A01 T03410199  RH  043%=      5-min Rain = 0
KOD1 142006Z 06006KT 34/20 A3005 RMK A01 T03430200  RH  043%=      5-min Rain = 0
KOD1 142007Z 02005KT 34/20 A3004 RMK A01 T03440203  RH  044%=      5-min Rain = 0
KOD1 142008Z 01004KT 34/20 A3004 RMK A01 T03440203  RH  044%=      5-min Rain = 0
KOD1 142009Z 03008KT 34/21 A3004 RMK A01 T03430205  RH  045%=      5-min Rain = 0
KOD1 142010Z 03010KT 35/20 A3004 RMK A01 T03450204  RH  044%=      5-min Rain = 0
KOD1 142011Z 02011KT 35/20 A3004 RMK A01 T03450204  RH  044%=      5-min Rain = 0
KOD1 142012Z 03011KT 35/20 A3004 RMK A01 T03450196  RH  042%=      5-min Rain = 0
KOD1 142013Z 04010KT 35/20 A3004 RMK A01 T03450198  RH  042%=      5-min Rain = 0
KOD1 142014Z 04007KT 34/20 A3004 RMK A01 T03430200  RH  043%=      5-min Rain = 0
KOD1 142015Z 04006KT 34/20 A3004 RMK A01 T03430201  RH  044%=      5-min Rain = 0
KOD1 142016Z 03007KT 34/20 A3004 RMK A01 T03430203  RH  044%=      5-min Rain = 0
KOD1 142017Z 03010KT 34/20 A3004 RMK A01 T03430201  RH  043%=      5-min Rain = 0
KOD1 142018Z 04008KT 34/20 A3004 RMK A01 T03400200  RH  044%=      5-min Rain = 0
KOD1 142019Z 03006KT 34/20 A3004 RMK A01 T03390202  RH  045%=      5-min Rain = 0
KOD1 142020Z 02009KT 34/20 A3004 RMK A01 T03410200  RH  044%=      5-min Rain = 0
KOD1 142021Z 04008KT 34/19 A3004 RMK A01 T03420194  RH  042%=      5-min Rain = 0
KOD1 142022Z 05007KT 35/19 A3004 RMK A01 T03460194  RH  041%=      5-min Rain = 0
KOD1 142023Z 06009KT 35/18 A3004 RMK A01 T03480184  RH  038%=      5-min Rain = 0
KOD1 142024Z 07007KT 35/18 A3004 RMK A01 T03460178  RH  037%=      5-min Rain = 0
KOD1 142025Z 06007KT 35/18 A3004 RMK A01 T03450181  RH  038%=      5-min Rain = 0
KOD1 142026Z 05008KT 34/18 A3004 RMK A01 T03440181  RH  038%=      5-min Rain = 0
KOD1 142027Z 04007G12KT 34/18 A3004 RMK A01 T03410180  RH  039%=      5-min Rain = 0
KOD1 142028Z 04010KT 34/18 A3004 RMK A01 T03410182  RH  039%=      5-min Rain = 0
KOD1 142029Z 03010KT 34/18 A3004 RMK A01 T03420182  RH  039%=      5-min Rain = 0
KOD1 142030Z 03008KT 34/18 A3003 RMK A01 T03430181  RH  038%=      5-min Rain = 0
KOD1 142031Z 04005KT 34/18 A3003 RMK A01 T03420176  RH  038%=      5-min Rain = 0
KOD1 142032Z 04005KT 34/18 A3003 RMK A01 T03410177  RH  038%=      5-min Rain = 0
KOD1 142033Z 00004KT 34/18 A3003 RMK A01 T03420179  RH  038%=      5-min Rain = 0
KOD1 142034Z 02003KT 34/18 A3003 RMK A01 T03410180  RH  039%=      5-min Rain = 0
KOD1 142035Z 02007KT 34/18 A3003 RMK A01 T03430181  RH  038%=      5-min Rain = 0
KOD1 142036Z 02008KT 34/18 A3003 RMK A01 T03420180  RH  038%=      5-min Rain = 0
KOD1 142037Z 02009KT 34/18 A3003 RMK A01 T03410181  RH  039%=      5-min Rain = 0
KOD1 142038Z 03009KT 34/18 A3003 RMK A01 T03400181  RH  039%=      5-min Rain = 0
KOD1 142039Z 03009KT 34/18 A3003 RMK A01 T03390178  RH  038%=      5-min Rain = 0
KOD1 142040Z 02007KT 34/18 A3003 RMK A01 T03410179  RH  038%=      5-min Rain = 0
KOD1 142041Z 03005KT 34/18 A3003 RMK A01 T03430179  RH  038%=      5-min Rain = 0
KOD1 142042Z 05005KT 34/18 A3003 RMK A01 T03440181  RH  038%=      5-min Rain = 0
KOD1 142043Z 04007KT 34/18 A3003 RMK A01 T03440182  RH  038%=      5-min Rain = 0
KOD1 142044Z 02006KT 34/18 A3003 RMK A01 T03440182  RH  038%=      5-min Rain = 0
KOD1 142045Z 02009KT 35/18 A3003 RMK A01 T03450182  RH  038%=      5-min Rain = 0
KOD1 142046Z 03006KT 34/18 A3003 RMK A01 T03420184  RH  039%=      5-min Rain = 0
KOD1 142047Z 06007KT 34/19 A3003 RMK A01 T03440188  RH  040%=      5-min Rain = 0
KOD1 142048Z 09006KT 34/19 A3003 RMK A01 T03440185  RH  039%=      5-min Rain = 0
KOD1 142049Z 11002KT 34/18 A3003 RMK A01 T03390183  RH  040%=      5-min Rain = 0
KOD1 142050Z 36002KT 34/18 A3003 RMK A01 T03390184  RH  040%=      5-min Rain = 0
KOD1 142051Z 02006KT 34/18 A3003 RMK A01 T03400181  RH  039%=      5-min Rain = 0
KOD1 142052Z 02009KT 34/18 A3003 RMK A01 T03420183  RH  039%=      5-min Rain = 0
KOD1 142053Z 03011KT 34/19 A3002 RMK A01 T03430188  RH  040%=      5-min Rain = 0
KOD1 142054Z 07010KT 34/19 A3002 RMK A01 T03440185  RH  039%=      5-min Rain = 0
KOD1 142055Z 08006KT 34/18 A3002 RMK A01 T03420184  RH  039%=      5-min Rain = 0
KOD1 142056Z 04007KT 34/19 A3002 RMK A01 T03440186  RH  039%=      5-min Rain = 0
KOD1 142057Z 03009KT 34/19 A3002 RMK A01 T03440186  RH  039%=      5-min Rain = 0
KOD1 142058Z 03006KT 34/19 A3002 RMK A01 T03440185  RH  039%=      5-min Rain = 0
KOD1 142059Z 02008KT 35/19 A3002 RMK A01 T03450185  RH  039%=      5-min Rain = 0
KOD1 142100Z 01007KT 34/18 A3002 RMK A01 T03420180  RH  038%=      5-min Rain = 0
KOD1 142101Z 02006KT 34/18 A3002 RMK A01 T03420181  RH  039%=      5-min Rain = 0
KOD1 142102Z 03006KT 34/18 A3002 RMK A01 T03430179  RH  038%=      5-min Rain = 0
KOD1 142103Z 02006KT 34/18 A3002 RMK A01 T03440182  RH  038%=      5-min Rain = 0
KOD1 142104Z 00004KT 35/18 A3002 RMK A01 T03450183  RH  039%=      5-min Rain = 0
KOD1 142105Z 04004KT 35/19 A3002 RMK A01 T03450185  RH  039%=      5-min Rain = 0
KOD1 142106Z 05005KT 35/19 A3002 RMK A01 T03460186  RH  039%=      5-min Rain = 0
KOD1 142107Z 05007KT 35/19 A3002 RMK A01 T03490189  RH  039%=      5-min Rain = 0
KOD1 142108Z 04009KT 35/18 A3001 RMK A01 T03520184  RH  037%=      5-min Rain = 0
KOD1 142109Z 04011KT 35/18 A3001 RMK A01 T03510180  RH  036%=      5-min Rain = 0
KOD1 142110Z 03009KT 35/18 A3001 RMK A01 T03480180  RH  037%=      5-min Rain = 0
KOD1 142111Z 03007KT 35/18 A3001 RMK A01 T03460180  RH  038%=      5-min Rain = 0
KOD1 142112Z 06002KT 35/18 A3001 RMK A01 T03450179  RH  037%=      5-min Rain = 0
KOD1 142113Z 04006KT 34/18 A3001 RMK A01 T03440181  RH  038%=      5-min Rain = 0
KOD1 142114Z 04007KT 34/19 A3001 RMK A01 T03440186  RH  039%=      5-min Rain = 0
KOD1 142115Z 05010KT 35/19 A3001 RMK A01 T03490188  RH  039%=      5-min Rain = 0
KOD1 142116Z 04007KT 35/19 A3001 RMK A01 T03500189  RH  039%=      5-min Rain = 0
KOD1 142117Z 03006KT 35/19 A3001 RMK A01 T03490185  RH  038%=      5-min Rain = 0
KOD1 142118Z 07008KT 35/19 A3001 RMK A01 T03480189  RH  039%=      5-min Rain = 0
KOD1 142119Z 06008KT 35/19 A3001 RMK A01 T03480189  RH  039%=      5-min Rain = 0
KOD1 142120Z 06007KT 35/19 A3001 RMK A01 T03490187  RH  039%=      5-min Rain = 0
KOD1 142121Z 07005KT 35/19 A3001 RMK A01 T03460185  RH  039%=      5-min Rain = 0
KOD1 142122Z 09006KT 34/19 A3001 RMK A01 T03440187  RH  040%=      5-min Rain = 0
KOD1 142123Z 09007KT 34/19 A3001 RMK A01 T03430188  RH  040%=      5-min Rain = 0
KOD1 142124Z 09005KT 34/19 A3001 RMK A01 T03430189  RH  040%=      5-min Rain = 0
KOD1 142125Z 10004KT 34/19 A3001 RMK A01 T03440190  RH  040%=      5-min Rain = 0
KOD1 142126Z 11003KT 35/19 A3001 RMK A01 T03460189  RH  040%=      5-min Rain = 0
KOD1 142127Z 06004G10KT 35/19 A3001 RMK A01 T03460189  RH  040%=      5-min Rain = 0
KOD1 142128Z 04007KT 35/19 A3001 RMK A01 T03470189  RH  039%=      5-min Rain = 0
KOD1 142129Z 04010KT 35/19 A3001 RMK A01 T03470190  RH  040%=      5-min Rain = 0
KOD1 142130Z 07010KT 35/19 A3001 RMK A01 T03460190  RH  040%=      5-min Rain = 0
KOD1 142131Z 08010KT 35/19 A3001 RMK A01 T03450192  RH  041%=      5-min Rain = 0
KOD1 142132Z 08008KT 34/19 A3001 RMK A01 T03440191  RH  040%=      5-min Rain = 0
KOD1 142133Z 09007KT 34/19 A3001 RMK A01 T03430190  RH  041%=      5-min Rain = 0
KOD1 142134Z 08007KT 34/19 A30 RMK A01 T03430190  RH  041%=      5-min Rain = 0
KOD1 142135Z 09005KT 34/19 A30 RMK A01 T03430188  RH  040%=      5-min Rain = 0
KOD1 142136Z 10005KT 34/19 A30 RMK A01 T03440189  RH  040%=      5-min Rain = 0
KOD1 142137Z 10005KT 34/19 A30 RMK A01 T03420189  RH  041%=      5-min Rain = 0
KOD1 142138Z 09005KT 34/19 A30 RMK A01 T03440189  RH  040%=      5-min Rain = 0
KOD1 142139Z 05004KT 35/19 A30 RMK A01 T03460189  RH  040%=      5-min Rain = 0
KOD1 142140Z 05007KT 35/19 A30 RMK A01 T03460189  RH  039%=      5-min Rain = 0
KOD1 142141Z 06007KT 35/19 A30 RMK A01 T03480186  RH  039%=      5-min Rain = 0
KOD1 142142Z 05007G14KT 35/19 A30 RMK A01 T03460187  RH  039%=      5-min Rain = 0
KOD1 142143Z 05009KT 35/19 A30 RMK A01 T03480191  RH  040%=      5-min Rain = 0
KOD1 142144Z 07004KT 35/19 A30 RMK A01 T03470187  RH  039%=      5-min Rain = 0
KOD1 142145Z 04008G14KT 35/19 A30 RMK A01 T03460191  RH  040%=      5-min Rain = 0
KOD1 142146Z 04009KT 35/19 A30 RMK A01 T03470190  RH  040%=      5-min Rain = 0
KOD1 142147Z 03008KT 35/19 A30 RMK A01 T03460188  RH  039%=      5-min Rain = 0
KOD1 142148Z 03009KT 35/19 A30 RMK A01 T03480191  RH  040%=      5-min Rain = 0
KOD1 142149Z 02010KT 35/19 A30 RMK A01 T03500191  RH  039%=      5-min Rain = 0
KOD1 142150Z 02007KT 35/19 A30 RMK A01 T03470187  RH  039%=      5-min Rain = 0
KOD1 142151Z 02007KT 35/19 A30 RMK A01 T03450190  RH  040%=      5-min Rain = 0
KOD1 142152Z 02006KT 35/19 A2999 RMK A01 T03470188  RH  039%=      5-min Rain = 0
KOD1 142153Z 04007KT 35/19 A2999 RMK A01 T03470191  RH  040%=      5-min Rain = 0
KOD1 142154Z 05008KT 35/19 A2999 RMK A01 T03500191  RH  039%=      5-min Rain = 0
KOD1 142155Z 03007KT 35/19 A2999 RMK A01 T03500188  RH  039%=      5-min Rain = 0
KOD1 142156Z 03008KT 35/19 A2999 RMK A01 T03480189  RH  039%=      5-min Rain = 0
KOD1 142157Z 06007KT 35/19 A2999 RMK A01 T03470189  RH  039%=      5-min Rain = 0
KOD1 142158Z 07005KT 35/19 A2999 RMK A01 T03470191  RH  040%=      5-min Rain = 0
KOD1 142159Z 08006KT 35/19 A2999 RMK A01 T03500192  RH  040%=      5-min Rain = 0
KOD1 142200Z 06007KT 35/19 A2999 RMK A01 T03490190  RH  039%=      5-min Rain = 0
KOD1 142201Z 06006KT 35/19 A2999 RMK A01 T03480191  RH  040%=      5-min Rain = 0
KOD1 142202Z 08005KT 35/19 A2999 RMK A01 T03490192  RH  040%=      5-min Rain = 0
KOD1 142203Z 10005KT 35/19 A2999 RMK A01 T03490191  RH  039%=      5-min Rain = 0
KOD1 142204Z 10005KT 35/19 A2999 RMK A01 T03500189  RH  039%=      5-min Rain = 0
KOD1 142205Z 10005KT 35/19 A2999 RMK A01 T03490189  RH  039%=      5-min Rain = 0
KOD1 142206Z 11004KT 35/19 A2999 RMK A01 T03470190  RH  040%=      5-min Rain = 0
KOD1 142207Z 12005KT 35/19 A2999 RMK A01 T03470189  RH  040%=      5-min Rain = 0
KOD1 142208Z 11006KT 35/19 A2999 RMK A01 T03480192  RH  040%=      5-min Rain = 0
KOD1 142209Z 11005KT 35/19 A2999 RMK A01 T03480190  RH  040%=      5-min Rain = 0
KOD1 142210Z 07006KT 35/19 A2999 RMK A01 T03480193  RH  040%=      5-min Rain = 0
KOD1 142211Z 05006KT 35/19 A2999 RMK A01 T03490191  RH  039%=      5-min Rain = 0
KOD1 142212Z 06007KT 35/19 A2999 RMK A01 T03510193  RH  039%=      5-min Rain = 0
KOD1 142213Z 06007KT 35/19 A2999 RMK A01 T03520190  RH  039%=      5-min Rain = 0
KOD1 142214Z 08008KT 35/19 A2999 RMK A01 T03500191  RH  039%=      5-min Rain = 0
KOD1 142215Z 08007KT 35/19 A2999 RMK A01 T03490189  RH  039%=      5-min Rain = 0
KOD1 142216Z 09008KT 35/19 A2999 RMK A01 T03470191  RH  040%=      5-min Rain = 0
KOD1 142217Z 08008KT 35/19 A2999 RMK A01 T03470190  RH  040%=      5-min Rain = 0
KOD1 142218Z 07006KT 35/19 A2999 RMK A01 T03460190  RH  040%=      5-min Rain = 0
KOD1 142219Z 08008KT 35/19 A2999 RMK A01 T03470191  RH  040%=      5-min Rain = 0
KOD1 142220Z 07008KT 35/19 A2999 RMK A01 T03470191  RH  040%=      5-min Rain = 0
KOD1 142221Z 06007KT 35/19 A2999 RMK A01 T03470190  RH  040%=      5-min Rain = 0
KOD1 142222Z 07005KT 35/19 A2999 RMK A01 T03460190  RH  040%=      5-min Rain = 0
KOD1 142223Z 09007KT 35/19 A2999 RMK A01 T03470191  RH  040%=      5-min Rain = 0
KOD1 142224Z 08005KT 35/19 A2999 RMK A01 T03460189  RH  040%=      5-min Rain = 0
KOD1 142225Z 07004KT 35/19 A2999 RMK A01 T03450188  RH  039%=      5-min Rain = 0
KOD1 142226Z 09004KT 35/19 A2999 RMK A01 T03450188  RH  040%=      5-min Rain = 0
KOD1 142227Z 11006KT 35/19 A2999 RMK A01 T03460190  RH  040%=      5-min Rain = 0
KOD1 142228Z 12003KT 35/19 A2999 RMK A01 T03470187  RH  039%=      5-min Rain = 0
KOD1 142229Z 08001KT 35/19 A2999 RMK A01 T03480188  RH  039%=      5-min Rain = 0
KOD1 142230Z 08004KT 35/19 A2999 RMK A01 T03490190  RH  039%=      5-min Rain = 0
KOD1 142231Z 08008KT 35/19 A2999 RMK A01 T03500190  RH  039%=      5-min Rain = 0
KOD1 142232Z 08010KT 35/19 A2999 RMK A01 T03490189  RH  039%=      5-min Rain = 0
KOD1 142233Z 07007KT 35/19 A2999 RMK A01 T03490191  RH  039%=      5-min Rain = 0
KOD1 142234Z 07006KT 35/19 A2999 RMK A01 T03490189  RH  039%=      5-min Rain = 0
KOD1 142235Z 06006KT 35/19 A2999 RMK A01 T03490188  RH  039%=      5-min Rain = 0
KOD1 142236Z 06005KT 35/19 A2999 RMK A01 T03480187  RH  039%=      5-min Rain = 0
KOD1 142237Z 05006KT 35/19 A2999 RMK A01 T03470188  RH  039%=      5-min Rain = 0
KOD1 142238Z 04006KT 35/19 A2999 RMK A01 T03470188  RH  039%=      5-min Rain = 0
KOD1 142239Z 07006KT 35/19 A2999 RMK A01 T03470189  RH  039%=      5-min Rain = 0
KOD1 142240Z 10005KT 35/19 A2999 RMK A01 T03490193  RH  040%=      5-min Rain = 0
KOD1 142241Z 10005KT 35/19 A2999 RMK A01 T03500192  RH  040%=      5-min Rain = 0
KOD1 142242Z 13005KT 35/19 A2999 RMK A01 T03520192  RH  039%=      5-min Rain = 0
KOD1 142243Z 10006KT 35/19 A2999 RMK A01 T03520193  RH  039%=      5-min Rain = 0
KOD1 142244Z 07006KT 35/19 A2999 RMK A01 T03510190  RH  039%=      5-min Rain = 0
KOD1 142245Z 07004KT 35/19 A2999 RMK A01 T03480187  RH  039%=      5-min Rain = 0
KOD1 142246Z 06004KT 35/19 A2999 RMK A01 T03480191  RH  040%=      5-min Rain = 0
KOD1 142247Z 06005KT 35/19 A2999 RMK A01 T03500192  RH  039%=      5-min Rain = 0
KOD1 142248Z 04005KT 35/19 A2999 RMK A01 T03520190  RH  039%=      5-min Rain = 0
KOD1 142249Z 04006KT 35/19 A2999 RMK A01 T03520189  RH  038%=      5-min Rain = 0
KOD1 142250Z 03006KT 35/19 A2999 RMK A01 T03510190  RH  039%=      5-min Rain = 0
KOD1 142251Z 03007KT 35/19 A2999 RMK A01 T03520190  RH  039%=      5-min Rain = 0
KOD1 142252Z 03006KT 35/19 A2999 RMK A01 T03510187  RH  038%=      5-min Rain = 0
KOD1 142253Z 04006KT 35/19 A2999 RMK A01 T03500189  RH  039%=      5-min Rain = 0
KOD1 142254Z 03006KT 35/19 A2999 RMK A01 T03500188  RH  038%=      5-min Rain = 0
KOD1 142255Z 04005KT 35/19 A2999 RMK A01 T03490187  RH  039%=      5-min Rain = 0
KOD1 142256Z 04006KT 35/19 A2999 RMK A01 T03500189  RH  039%=      5-min Rain = 0
KOD1 142257Z 03006KT 35/19 A2999 RMK A01 T03510187  RH  038%=      5-min Rain = 0
KOD1 142258Z 06005KT 35/19 A2999 RMK A01 T03490186  RH  038%=      5-min Rain = 0
KOD1 142259Z 07004KT 35/19 A2999 RMK A01 T03490188  RH  039%=      5-min Rain = 0
KOD1 142300Z 08004KT 35/19 A2999 RMK A01 T03490185  RH  038%=      5-min Rain = 0
KOD1 142301Z 08002KT 35/18 A2999 RMK A01 T03470183  RH  038%=      5-min Rain = 0
KOD1 142302Z 07004KT 35/18 A2999 RMK A01 T03460184  RH  039%=      5-min Rain = 0
KOD1 142303Z 05005KT 35/19 A2999 RMK A01 T03460186  RH  039%=      5-min Rain = 0
KOD1 142304Z 05006KT 35/19 A2999 RMK A01 T03470187  RH  039%=      5-min Rain = 0
KOD1 142305Z 04008KT 35/19 A2999 RMK A01 T03480189  RH  039%=      5-min Rain = 0
KOD1 142306Z 04006KT 35/19 A2999 RMK A01 T03490185  RH  038%=      5-min Rain = 0
KOD1 142307Z 04004KT 35/19 A2999 RMK A01 T03470185  RH  038%=      5-min Rain = 0
KOD1 142308Z 05005KT 35/19 A2999 RMK A01 T03460185  RH  039%=      5-min Rain = 0
KOD1 142309Z 05004KT 35/19 A2999 RMK A01 T03460187  RH  039%=      5-min Rain = 0
KOD1 142310Z 02003KT 35/19 A2999 RMK A01 T03480187  RH  039%=      5-min Rain = 0
KOD1 142311Z 02003KT 35/19 A2999 RMK A01 T03480185  RH  038%=      5-min Rain = 0
KOD1 142312Z 05006KT 35/19 A2999 RMK A01 T03490189  RH  039%=      5-min Rain = 0
KOD1 142313Z 05005KT 35/19 A2999 RMK A01 T03490187  RH  038%=      5-min Rain = 0
KOD1 142314Z 04003KT 35/19 A2999 RMK A01 T03490186  RH  038%=      5-min Rain = 0
KOD1 142315Z 03003KT 35/19 A2999 RMK A01 T03490186  RH  038%=      5-min Rain = 0
KOD1 142316Z 03006KT 35/19 A2999 RMK A01 T03500187  RH  038%=      5-min Rain = 0
KOD1 142317Z 04008KT 35/19 A2999 RMK A01 T03500188  RH  039%=      5-min Rain = 0
KOD1 142318Z 03007KT 35/19 A2999 RMK A01 T03500188  RH  038%=      5-min Rain = 0
KOD1 142319Z 04006KT 35/19 A2999 RMK A01 T03510189  RH  039%=      5-min Rain = 0
KOD1 142320Z 04006KT 35/19 A2999 RMK A01 T03510188  RH  038%=      5-min Rain = 0
KOD1 142321Z 03005KT 35/19 A2999 RMK A01 T03500188  RH  039%=      5-min Rain = 0
KOD1 142322Z 03006KT 35/19 A2999 RMK A01 T03500187  RH  038%=      5-min Rain = 0
KOD1 142323Z 03006KT 35/19 A2999 RMK A01 T03500188  RH  039%=      5-min Rain = 0
KOD1 142324Z 02008KT 35/19 A2999 RMK A01 T03480186  RH  038%=      5-min Rain = 0
KOD1 142325Z 01006KT 35/19 A2999 RMK A01 T03470186  RH  039%=      5-min Rain = 0
KOD1 142326Z 36006KT 35/19 A2999 RMK A01 T03480187  RH  039%=      5-min Rain = 0
KOD1 142327Z 35008KT 35/19 A2999 RMK A01 T03480186  RH  038%=      5-min Rain = 0
KOD1 142328Z 02010KT 35/19 A2999 RMK A01 T03480186  RH  038%=      5-min Rain = 0
KOD1 142329Z 03007KT 35/19 A2999 RMK A01 T03480187  RH  039%=      5-min Rain = 0
KOD1 142330Z 04007KT 35/19 A2999 RMK A01 T03500189  RH  039%=      5-min Rain = 0
KOD1 142331Z 04006KT 35/19 A2999 RMK A01 T03510188  RH  038%=      5-min Rain = 0
KOD1 142332Z 03005KT 35/19 A2999 RMK A01 T03500186  RH  038%=      5-min Rain = 0
KOD1 142333Z 04004KT 35/19 A2999 RMK A01 T03490186  RH  038%=      5-min Rain = 0
KOD1 142334Z 03009KT 35/19 A2999 RMK A01 T03490187  RH  039%=      5-min Rain = 0
KOD1 142335Z 03006KT 35/19 A2999 RMK A01 T03490187  RH  039%=      5-min Rain = 0
KOD1 142336Z 04008KT 35/19 A2999 RMK A01 T03500189  RH  039%=      5-min Rain = 0
KOD1 142337Z 04008KT 35/19 A2999 RMK A01 T03500188  RH  038%=      5-min Rain = 0
KOD1 142338Z 04010KT 35/19 A2999 RMK A01 T03500187  RH  038%=      5-min Rain = 0
KOD1 142339Z 05009KT 35/19 A2999 RMK A01 T03480186  RH  038%=      5-min Rain = 0
KOD1 142340Z 05007KT 35/19 A2999 RMK A01 T03470186  RH  039%=      5-min Rain = 0
KOD1 142341Z 03007KT 35/18 A2999 RMK A01 T03470184  RH  038%=      5-min Rain = 0
KOD1 142342Z 03006KT 35/19 A2999 RMK A01 T03460185  RH  039%=      5-min Rain = 0
KOD1 142343Z 06007KT 35/19 A2999 RMK A01 T03460185  RH  039%=      5-min Rain = 0
KOD1 142344Z 05005KT 35/19 A2999 RMK A01 T03450185  RH  039%=      5-min Rain = 0
KOD1 142345Z 05006KT 35/19 A2999 RMK A01 T03450185  RH  039%=      5-min Rain = 0
KOD1 142346Z 04006KT 35/19 A2999 RMK A01 T03460186  RH  039%=      5-min Rain = 0
KOD1 142347Z 02005KT 35/19 A2999 RMK A01 T03460185  RH  039%=      5-min Rain = 0
KOD1 142348Z 02005KT 35/18 A2999 RMK A01 T03460184  RH  038%=      5-min Rain = 0
KOD1 142349Z 03005KT 35/19 A2999 RMK A01 T03470186  RH  039%=      5-min Rain = 0
KOD1 142350Z 05006KT 35/19 A2999 RMK A01 T03480188  RH  039%=      5-min Rain = 0
KOD1 142351Z 04007KT 35/18 A2999 RMK A01 T03470184  RH  038%=      5-min Rain = 0
KOD1 142352Z 03009KT 35/19 A2999 RMK A01 T03470185  RH  039%=      5-min Rain = 0
KOD1 142353Z 03008KT 35/18 A2999 RMK A01 T03460184  RH  038%=      5-min Rain = 0
KOD1 142354Z 03008KT 35/18 A2999 RMK A01 T03450183  RH  039%=      5-min Rain = 0
KOD1 142355Z 03007KT 34/18 A2999 RMK A01 T03440184  RH  039%=      5-min Rain = 0
KOD1 142356Z 02005KT 35/19 A2999 RMK A01 T03450185  RH  039%=      5-min Rain = 0
KOD1 142357Z 01006KT 35/18 A2999 RMK A01 T03460184  RH  038%=      5-min Rain = 0
KOD1 142358Z 01006KT 35/19 A2999 RMK A01 T03460185  RH  039%=      5-min Rain = 0
KOD1 142359Z 01006KT 35/18 A2999 RMK A01 T03470184  RH  038%=      5-min Rain = 0
KOD1 150000Z 01005KT 35/18 A2999 RMK A01 T03460183  RH  038%=      5-min Rain = 0
KOD1 150001Z 03008KT 35/18 A2999 RMK A01 T03460184  RH  038%=      5-min Rain = 0
KOD1 150002Z 03007KT 35/19 A2999 RMK A01 T03450185  RH  039%=      5-min Rain = 0
KOD1 150003Z 03008KT 35/18 A2999 RMK A01 T03450183  RH  038%=      5-min Rain = 0
KOD1 150004Z 03007KT 34/18 A2999 RMK A01 T03440183  RH  039%=      5-min Rain = 0
KOD1 150005Z 03005KT 34/18 A2999 RMK A01 T03430183  RH  039%=      5-min Rain = 0
KOD1 150006Z 03005KT 34/18 A2999 RMK A01 T03430184  RH  039%=      5-min Rain = 0
KOD1 150007Z 03005KT 34/18 A2999 RMK A01 T03430182  RH  039%=      5-min Rain = 0
KOD1 150008Z 02006KT 34/18 A2999 RMK A01 T03430182  RH  039%=      5-min Rain = 0
KOD1 150009Z 01004KT 34/18 A2999 RMK A01 T03430183  RH  039%=      5-min Rain = 0
KOD1 150010Z 03003KT 34/18 A2999 RMK A01 T03430182  RH  038%=      5-min Rain = 0
KOD1 150011Z 06004KT 34/18 A2999 RMK A01 T03440184  RH  039%=      5-min Rain = 0
KOD1 150012Z 08004KT 34/18 A2999 RMK A01 T03430181  RH  038%=      5-min Rain = 0
KOD1 150013Z 02004KT 34/18 A2999 RMK A01 T03430184  RH  039%=      5-min Rain = 0
KOD1 150014Z 02005KT 34/18 A2999 RMK A01 T03430184  RH  039%=      5-min Rain = 0
KOD1 150015Z 03004KT 34/18 A2999 RMK A01 T03430184  RH  039%=      5-min Rain = 0
KOD1 150016Z 02004KT 34/18 A2999 RMK A01 T03440184  RH  039%=      5-min Rain = 0
KOD1 150017Z 04004KT 34/18 A2999 RMK A01 T03430184  RH  039%=      5-min Rain = 0
KOD1 150018Z 03005KT 34/18 A2999 RMK A01 T03440184  RH  039%=      5-min Rain = 0
KOD1 150019Z 04004KT 34/18 A2999 RMK A01 T03430184  RH  039%=      5-min Rain = 0
KOD1 150020Z 02006KT 34/18 A2999 RMK A01 T03430184  RH  039%=      5-min Rain = 0
KOD1 150021Z 02005KT 34/18 A2999 RMK A01 T03420183  RH  039%=      5-min Rain = 0
KOD1 150022Z 03007KT 34/18 A2999 RMK A01 T03420184  RH  039%=      5-min Rain = 0
KOD1 150023Z 03007KT 34/18 A2999 RMK A01 T03410183  RH  039%=      5-min Rain = 0
KOD1 150024Z 03007KT 34/18 A2999 RMK A01 T03410182  RH  039%=      5-min Rain = 0
KOD1 150025Z 03007KT 34/18 A2999 RMK A01 T03400182  RH  039%=      5-min Rain = 0
KOD1 150026Z 04007KT 34/18 A2999 RMK A01 T03400183  RH  039%=      5-min Rain = 0
KOD1 150027Z 04006KT 34/18 A2999 RMK A01 T03400184  RH  040%=      5-min Rain = 0
KOD1 150028Z 04005KT 34/18 A2999 RMK A01 T03400183  RH  039%=      5-min Rain = 0
KOD1 150029Z 04006KT 34/18 A2999 RMK A01 T03400183  RH  039%=      5-min Rain = 0
KOD1 150030Z 03005KT 34/18 A2999 RMK A01 T03400184  RH  040%=      5-min Rain = 0
KOD1 150031Z 03005KT 34/19 A2999 RMK A01 T03400186  RH  040%=      5-min Rain = 0
KOD1 150032Z 03006KT 34/19 A2999 RMK A01 T03390187  RH  040%=      5-min Rain = 0
KOD1 150033Z 04006KT 34/18 A2999 RMK A01 T03390184  RH  040%=      5-min Rain = 0
KOD1 150034Z 03007KT 34/18 A2999 RMK A01 T03380184  RH  040%=      5-min Rain = 0
KOD1 150035Z 04007KT 34/18 A2999 RMK A01 T03380182  RH  040%=      5-min Rain = 0
KOD1 150036Z 04007KT 34/18 A2999 RMK A01 T03380182  RH  040%=      5-min Rain = 0
KOD1 150037Z 03007KT 34/18 A2999 RMK A01 T03370182  RH  040%=      5-min Rain = 0
KOD1 150038Z 03006KT 34/18 A2999 RMK A01 T03370183  RH  040%=      5-min Rain = 0
KOD1 150039Z 03006KT 34/18 A2999 RMK A01 T03360183  RH  040%=      5-min Rain = 0
KOD1 150040Z 04005KT 34/18 A2999 RMK A01 T03360184  RH  040%=      5-min Rain = 0
KOD1 150041Z 03006KT 34/18 A2999 RMK A01 T03360184  RH  040%=      5-min Rain = 0
KOD1 150042Z 04006KT 34/18 A2999 RMK A01 T03360181  RH  040%=      5-min Rain = 0
KOD1 150043Z 03007KT 34/18 A2999 RMK A01 T03360182  RH  040%=      5-min Rain = 0
KOD1 150044Z 03006KT 34/18 A2999 RMK A01 T03350182  RH  040%=      5-min Rain = 0
KOD1 150045Z 04006KT 34/18 A2999 RMK A01 T03350182  RH  040%=      5-min Rain = 0
KOD1 150046Z 04006KT 34/18 A2999 RMK A01 T03350183  RH  041%=      5-min Rain = 0
KOD1 150047Z 04005KT 33/18 A2999 RMK A01 T03340183  RH  041%=      5-min Rain = 0
KOD1 150048Z 04006KT 33/18 A2999 RMK A01 T03340184  RH  041%=      5-min Rain = 0
KOD1 150049Z 04005KT 33/19 A2999 RMK A01 T03340185  RH  041%=      5-min Rain = 0
KOD1 150050Z 04006KT 33/19 A2999 RMK A01 T03330185  RH  042%=      5-min Rain = 0
KOD1 150051Z 04005KT 33/19 A2999 RMK A01 T03320185  RH  042%=      5-min Rain = 0
KOD1 150052Z 04005KT 33/19 A2999 RMK A01 T03320187  RH  042%=      5-min Rain = 0
KOD1 150053Z 04005KT 33/19 A2999 RMK A01 T03310188  RH  043%=      5-min Rain = 0
KOD1 150054Z 04004KT 33/19 A2999 RMK A01 T03300188  RH  043%=      5-min Rain = 0
KOD1 150055Z 05004KT 33/19 A2999 RMK A01 T03300190  RH  044%=      5-min Rain = 0
KOD1 150056Z 05005KT 33/19 A2999 RMK A01 T03290190  RH  044%=      5-min Rain = 0
KOD1 150057Z 05004KT 33/19 A30 RMK A01 T03290191  RH  044%=      5-min Rain = 0
KOD1 150058Z 05005KT 33/19 A30 RMK A01 T03280190  RH  044%=      5-min Rain = 0
KOD1 150059Z 05004KT 33/19 A30 RMK A01 T03270190  RH  044%=      5-min Rain = 0
KOD1 150100Z 05004KT 33/19 A30 RMK A01 T03270189  RH  044%=      5-min Rain = 0
KOD1 150101Z 05005KT 33/19 A30 RMK A01 T03270190  RH  045%=      5-min Rain = 0
KOD1 150102Z 05005KT 33/19 A30 RMK A01 T03260190  RH  045%=      5-min Rain = 0
KOD1 150103Z 05005KT 33/19 A30 RMK A01 T03260190  RH  045%=      5-min Rain = 0
KOD1 150104Z 05005KT 33/19 A30 RMK A01 T03250190  RH  045%=      5-min Rain = 0
KOD1 150105Z 05005KT 32/19 A30 RMK A01 T03240188  RH  045%=      5-min Rain = 0
KOD1 150106Z 05004KT 32/19 A30 RMK A01 T03230188  RH  045%=      5-min Rain = 0
KOD1 150107Z 05004KT 32/19 A30 RMK A01 T03230189  RH  045%=      5-min Rain = 0
KOD1 150108Z 05004KT 32/19 A30 RMK A01 T03220189  RH  045%=      5-min Rain = 0
KOD1 150109Z 05004KT 32/19 A30 RMK A01 T03210190  RH  046%=      5-min Rain = 0
KOD1 150110Z 06004KT 32/19 A30 RMK A01 T03200190  RH  046%=      5-min Rain = 0
KOD1 150111Z 06004KT 32/19 A30 RMK A01 T03190189  RH  046%=      5-min Rain = 0
KOD1 150112Z 06004KT 32/19 A30 RMK A01 T03180190  RH  046%=      5-min Rain = 0
KOD1 150113Z 05004KT 32/19 A30 RMK A01 T03180190  RH  047%=      5-min Rain = 0
KOD1 150114Z 05004KT 32/19 A30 RMK A01 T03170192  RH  048%=      5-min Rain = 0
KOD1 150115Z 05004KT 32/19 A30 RMK A01 T03150191  RH  048%=      5-min Rain = 0
KOD1 150116Z 05004KT 31/19 A30 RMK A01 T03140191  RH  048%=      5-min Rain = 0
KOD1 150117Z 05004KT 31/19 A30 RMK A01 T03130192  RH  048%=      5-min Rain = 0
KOD1 150118Z 05004KT 31/19 A30 RMK A01 T03120192  RH  049%=      5-min Rain = 0
KOD1 150119Z 05004KT 31/19 A30 RMK A01 T03110193  RH  049%=      5-min Rain = 0
KOD1 150120Z 05003KT 31/19 A30 RMK A01 T03100194  RH  050%=      5-min Rain = 0
KOD1 150121Z 05003KT 31/19 A30 RMK A01 T03090194  RH  050%=      5-min Rain = 0
KOD1 150122Z 05004KT 31/19 A30 RMK A01 T03080193  RH  050%=      5-min Rain = 0
KOD1 150123Z 05004KT 31/19 A30 RMK A01 T03080193  RH  050%=      5-min Rain = 0
KOD1 150124Z 05004KT 31/19 A30 RMK A01 T03070194  RH  051%=      5-min Rain = 0
KOD1 150125Z 06004KT 31/20 A30 RMK A01 T03060195  RH  051%=      5-min Rain = 0
KOD1 150126Z 06004KT 31/20 A30 RMK A01 T03060195  RH  052%=      5-min Rain = 0
KOD1 150127Z 05004KT 31/20 A30 RMK A01 T03050195  RH  052%=      5-min Rain = 0
KOD1 150128Z 05004KT 30/20 A30 RMK A01 T03040196  RH  053%=      5-min Rain = 0
KOD1 150129Z 05004KT 30/20 A30 RMK A01 T03030197  RH  053%=      5-min Rain = 0
KOD1 150130Z 05004KT 30/20 A3001 RMK A01 T03010197  RH  054%=      5-min Rain = 0
KOD1 150131Z 05004KT 30/20 A3001 RMK A01 T03000197  RH  054%=      5-min Rain = 0
KOD1 150132Z 06003KT 30/20 A3001 RMK A01 T03000197  RH  054%=      5-min Rain = 0
KOD1 150133Z 08003KT 30/20 A3001 RMK A01 T02990197  RH  054%=      5-min Rain = 0
KOD1 150134Z 10003KT 30/20 A3001 RMK A01 T02990195  RH  054%=      5-min Rain = 0
KOD1 150135Z 08004KT 30/19 A3001 RMK A01 T02990194  RH  053%=      5-min Rain = 0
KOD1 150136Z 08004KT 30/20 A3001 RMK A01 T02990195  RH  054%=      5-min Rain = 0
KOD1 150137Z 07004KT 30/20 A3001 RMK A01 T02980196  RH  054%=      5-min Rain = 0
KOD1 150138Z 07004KT 30/20 A3001 RMK A01 T02980196  RH  054%=      5-min Rain = 0
KOD1 150139Z 06004KT 30/19 A3001 RMK A01 T02980193  RH  054%=      5-min Rain = 0
KOD1 150140Z 06004KT 30/19 A3001 RMK A01 T02990192  RH  053%=      5-min Rain = 0
KOD1 150141Z 06004KT 30/19 A3001 RMK A01 T02990193  RH  053%=      5-min Rain = 0
KOD1 150142Z 06004KT 30/19 A3001 RMK A01 T02990192  RH  053%=      5-min Rain = 0
KOD1 150143Z 06005KT 30/19 A3001 RMK A01 T02990191  RH  052%=      5-min Rain = 0
KOD1 150144Z 06005KT 30/19 A3001 RMK A01 T03000191  RH  052%=      5-min Rain = 0
KOD1 150145Z 06004KT 30/19 A3001 RMK A01 T03000191  RH  052%=      5-min Rain = 0
KOD1 150146Z 06005KT 30/19 A3001 RMK A01 T03000190  RH  052%=      5-min Rain = 0
KOD1 150147Z 06004KT 30/19 A3001 RMK A01 T03000191  RH  052%=      5-min Rain = 0
KOD1 150148Z 06004KT 30/19 A3001 RMK A01 T03000191  RH  052%=      5-min Rain = 0
KOD1 150149Z 06004KT 30/19 A3001 RMK A01 T02990191  RH  052%=      5-min Rain = 0
KOD1 150150Z 06004KT 30/19 A3001 RMK A01 T02990192  RH  053%=      5-min Rain = 0
KOD1 150151Z 06004KT 30/19 A3001 RMK A01 T02980192  RH  053%=      5-min Rain = 0
KOD1 150152Z 06004KT 30/19 A3001 RMK A01 T02980193  RH  053%=      5-min Rain = 0
KOD1 150153Z 05004KT 30/19 A3001 RMK A01 T02970193  RH  054%=      5-min Rain = 0
KOD1 150154Z 05004KT 30/19 A3001 RMK A01 T02960193  RH  054%=      5-min Rain = 0
KOD1 150155Z 05004KT 30/19 A3002 RMK A01 T02960192  RH  054%=      5-min Rain = 0
KOD1 150156Z 05004KT 30/19 A3002 RMK A01 T02960193  RH  054%=      5-min Rain = 0
KOD1 150157Z 05004KT 30/19 A3002 RMK A01 T02950193  RH  054%=      5-min Rain = 0
KOD1 150158Z 04004KT 30/19 A3002 RMK A01 T02950194  RH  055%=      5-min Rain = 0
KOD1 150159Z 04004KT 29/19 A3002 RMK A01 T02940193  RH  054%=      5-min Rain = 0
KOD1 150200Z 04004KT 29/19 A3002 RMK A01 T02940193  RH  054%=      5-min Rain = 0
KOD1 150201Z 04004KT 30/19 A3002 RMK A01 T02950192  RH  054%=      5-min Rain = 0
KOD1 150202Z 03004KT 30/19 A3002 RMK A01 T02950193  RH  054%=      5-min Rain = 0
KOD1 150203Z 03004KT 30/19 A3002 RMK A01 T02950193  RH  054%=      5-min Rain = 0
KOD1 150204Z 03004KT 30/19 A3002 RMK A01 T02950194  RH  055%=      5-min Rain = 0
KOD1 150205Z 03003KT 30/20 A3002 RMK A01 T02950195  RH  055%=      5-min Rain = 0
KOD1 150206Z 03003KT 29/19 A3002 RMK A01 T02940194  RH  055%=      5-min Rain = 0
KOD1 150207Z 03003KT 29/19 A3002 RMK A01 T02940193  RH  055%=      5-min Rain = 0
KOD1 150208Z 04003KT 29/19 A3002 RMK A01 T02940194  RH  055%=      5-min Rain = 0
KOD1 150209Z 04003KT 29/19 A3002 RMK A01 T02940194  RH  055%=      5-min Rain = 0
KOD1 150210Z 03004KT 29/20 A3003 RMK A01 T02940195  RH  055%=      5-min Rain = 0
KOD1 150211Z 03004KT 29/19 A3003 RMK A01 T02930194  RH  055%=      5-min Rain = 0
KOD1 150212Z 04004KT 29/20 A3003 RMK A01 T02930195  RH  056%=      5-min Rain = 0
KOD1 150213Z 05003KT 29/20 A3003 RMK A01 T02920195  RH  056%=      5-min Rain = 0
KOD1 150214Z 04003KT 29/19 A3003 RMK A01 T02920194  RH  056%=      5-min Rain = 0
KOD1 150215Z 04003KT 29/19 A3003 RMK A01 T02920193  RH  055%=      5-min Rain = 0
KOD1 150216Z 05004KT 29/19 A3003 RMK A01 T02930193  RH  055%=      5-min Rain = 0
KOD1 150217Z 05004KT 29/19 A3003 RMK A01 T02940193  RH  054%=      5-min Rain = 0
KOD1 150218Z 05004KT 29/19 A3003 RMK A01 T02940194  RH  055%=      5-min Rain = 0
KOD1 150219Z 05004KT 29/20 A3003 RMK A01 T02940196  RH  055%=      5-min Rain = 0
KOD1 150220Z 05004KT 29/20 A3003 RMK A01 T02930199  RH  057%=      5-min Rain = 0
KOD1 150221Z 05003KT 29/20 A3003 RMK A01 T02900196  RH  057%=      5-min Rain = 0
KOD1 150222Z 05003KT 29/20 A3003 RMK A01 T02900196  RH  057%=      5-min Rain = 0
KOD1 150223Z 05003KT 29/19 A3003 RMK A01 T02890193  RH  056%=      5-min Rain = 0
KOD1 150224Z 06004KT 29/19 A3003 RMK A01 T02890191  RH  055%=      5-min Rain = 0
KOD1 150225Z 07003KT 29/19 A3003 RMK A01 T02910190  RH  055%=      5-min Rain = 0
KOD1 150226Z 07004KT 29/19 A3003 RMK A01 T02920188  RH  053%=      5-min Rain = 0
KOD1 150227Z 06004KT 30/19 A3003 RMK A01 T02950189  RH  053%=      5-min Rain = 0
KOD1 150228Z 06004KT 30/19 A3003 RMK A01 T02960190  RH  053%=      5-min Rain = 0
KOD1 150229Z 07004KT 30/19 A3003 RMK A01 T02960190  RH  053%=      5-min Rain = 0
KOD1 150230Z 08004KT 30/19 A3003 RMK A01 T02950190  RH  053%=      5-min Rain = 0
KOD1 150231Z 08004KT 30/19 A3003 RMK A01 T02950190  RH  053%=      5-min Rain = 0
KOD1 150232Z 08005KT 29/19 A3004 RMK A01 T02940188  RH  053%=      5-min Rain = 0
KOD1 150233Z 08005KT 29/19 A3004 RMK A01 T02940187  RH  053%=      5-min Rain = 0
KOD1 150234Z 08004KT 29/19 A3004 RMK A01 T02940186  RH  052%=      5-min Rain = 0
KOD1 150235Z 07004KT 30/19 A3004 RMK A01 T02950186  RH  052%=      5-min Rain = 0
KOD1 150236Z 08004KT 30/19 A3004 RMK A01 T02960185  RH  052%=      5-min Rain = 0
KOD1 150237Z 07004KT 30/18 A3004 RMK A01 T02960184  RH  051%=      5-min Rain = 0
KOD1 150238Z 08005KT 30/19 A3004 RMK A01 T02960185  RH  051%=      5-min Rain = 0
KOD1 150239Z 07004KT 30/18 A3004 RMK A01 T02960184  RH  051%=      5-min Rain = 0
KOD1 150240Z 08004KT 30/18 A3004 RMK A01 T02970184  RH  051%=      5-min Rain = 0
KOD1 150241Z 08004KT 30/18 A3004 RMK A01 T02970183  RH  050%=      5-min Rain = 0
KOD1 150242Z 09004KT 30/18 A3004 RMK A01 T02980184  RH  050%=      5-min Rain = 0
KOD1 150243Z 08004KT 30/19 A3004 RMK A01 T02980187  RH  051%=      5-min Rain = 0
KOD1 150244Z 09004KT 30/19 A3005 RMK A01 T02970187  RH  052%=      5-min Rain = 0
KOD1 150245Z 10004KT 30/19 A3005 RMK A01 T02960187  RH  052%=      5-min Rain = 0
KOD1 150246Z 10003KT 30/19 A3005 RMK A01 T02950188  RH  053%=      5-min Rain = 0
KOD1 150247Z 09004KT 29/19 A3005 RMK A01 T02940189  RH  053%=      5-min Rain = 0
KOD1 150248Z 09003KT 29/19 A3005 RMK A01 T02930190  RH  054%=      5-min Rain = 0
KOD1 150249Z 10004KT 29/19 A3005 RMK A01 T02920189  RH  054%=      5-min Rain = 0
KOD1 150250Z 10003KT 29/19 A3005 RMK A01 T02920189  RH  054%=      5-min Rain = 0
KOD1 150251Z 10005KT 29/19 A3005 RMK A01 T02930188  RH  053%=      5-min Rain = 0
KOD1 150252Z 10004KT 29/19 A3005 RMK A01 T02930190  RH  054%=      5-min Rain = 0
KOD1 150253Z 10005KT 29/19 A3005 RMK A01 T02920190  RH  054%=      5-min Rain = 0
KOD1 150254Z 10005KT 29/19 A3005 RMK A01 T02920190  RH  054%=      5-min Rain = 0
KOD1 150255Z 10005KT 29/19 A3005 RMK A01 T02910190  RH  054%=      5-min Rain = 0
KOD1 150256Z 11004KT 29/19 A3005 RMK A01 T02910190  RH  054%=      5-min Rain = 0
KOD1 150257Z 11004KT 29/19 A3005 RMK A01 T02910190  RH  055%=      5-min Rain = 0
KOD1 150258Z 11004KT 29/19 A3005 RMK A01 T02910192  RH  055%=      5-min Rain = 0
KOD1 150259Z 11005KT 29/19 A3005 RMK A01 T02900192  RH  056%=      5-min Rain = 0
KOD1 150300Z 11005KT 29/19 A3005 RMK A01 T02900192  RH  055%=      5-min Rain = 0
KOD1 150301Z 11005KT 29/19 A3006 RMK A01 T02900191  RH  055%=      5-min Rain = 0
KOD1 150302Z 11006KT 29/19 A3006 RMK A01 T02900191  RH  055%=      5-min Rain = 0
KOD1 150303Z 11005KT 29/19 A3006 RMK A01 T02900191  RH  055%=      5-min Rain = 0
KOD1 150304Z 11005KT 29/19 A3006 RMK A01 T02900191  RH  055%=      5-min Rain = 0
KOD1 150305Z 11005KT 29/19 A3006 RMK A01 T02900191  RH  055%=      5-min Rain = 0
KOD1 150306Z 11005KT 29/19 A3006 RMK A01 T02900192  RH  056%=      5-min Rain = 0
KOD1 150307Z 11006KT 29/19 A3006 RMK A01 T02900192  RH  056%=      5-min Rain = 0
KOD1 150308Z 11006KT 29/19 A3006 RMK A01 T02890192  RH  056%=      5-min Rain = 0
KOD1 150309Z 11005KT 29/19 A3006 RMK A01 T02900191  RH  055%=      5-min Rain = 0
KOD1 150310Z 11005KT 29/19 A3006 RMK A01 T02900193  RH  056%=      5-min Rain = 0
KOD1 150311Z 11005KT 29/19 A3006 RMK A01 T02900193  RH  056%=      5-min Rain = 0
KOD1 150312Z 11005KT 29/19 A3006 RMK A01 T02890193  RH  056%=      5-min Rain = 0
KOD1 150313Z 11005KT 29/19 A3006 RMK A01 T02890194  RH  056%=      5-min Rain = 0
KOD1 150314Z 11005KT 29/19 A3006 RMK A01 T02880194  RH  057%=      5-min Rain = 0
KOD1 150315Z 11005KT 29/19 A3006 RMK A01 T02880193  RH  057%=      5-min Rain = 0
KOD1 150316Z 11006KT 29/19 A3006 RMK A01 T02870194  RH  057%=      5-min Rain = 0
KOD1 150317Z 11005KT 29/19 A3006 RMK A01 T02860194  RH  057%=      5-min Rain = 0
KOD1 150318Z 11005KT 29/20 A3006 RMK A01 T02850195  RH  058%=      5-min Rain = 0
KOD1 150319Z 11005KT 29/20 A3006 RMK A01 T02850195  RH  058%=      5-min Rain = 0
KOD1 150320Z 11005KT 28/20 A3006 RMK A01 T02840195  RH  058%=      5-min Rain = 0
KOD1 150321Z 11005KT 28/20 A3006 RMK A01 T02840195  RH  058%=      5-min Rain = 0
KOD1 150322Z 11005KT 28/20 A3006 RMK A01 T02840195  RH  059%=      5-min Rain = 0
KOD1 150323Z 11005KT 28/20 A3006 RMK A01 T02830195  RH  059%=      5-min Rain = 0
KOD1 150324Z 11005KT 28/20 A3006 RMK A01 T02830196  RH  059%=      5-min Rain = 0
KOD1 150325Z 11005KT 28/20 A3006 RMK A01 T02820196  RH  059%=      5-min Rain = 0
KOD1 150326Z 11005KT 28/20 A3006 RMK A01 T02820196  RH  060%=      5-min Rain = 0
KOD1 150327Z 11005KT 28/20 A3006 RMK A01 T02810196  RH  060%=      5-min Rain = 0
KOD1 150328Z 11005KT 28/20 A3007 RMK A01 T02810197  RH  061%=      5-min Rain = 0
KOD1 150329Z 11005KT 28/20 A3007 RMK A01 T02790197  RH  061%=      5-min Rain = 0
KOD1 150330Z 11004KT 28/20 A3007 RMK A01 T02790196  RH  061%=      5-min Rain = 0
KOD1 150331Z 11004KT 28/20 A3007 RMK A01 T02780197  RH  061%=      5-min Rain = 0
KOD1 150332Z 11005KT 28/20 A3007 RMK A01 T02780196  RH  061%=      5-min Rain = 0
KOD1 150333Z 11004KT 28/20 A3007 RMK A01 T02780196  RH  061%=      5-min Rain = 0
KOD1 150334Z 11005KT 28/20 A3007 RMK A01 T02780196  RH  061%=      5-min Rain = 0
KOD1 150335Z 11004KT 28/20 A3007 RMK A01 T02780197  RH  061%=      5-min Rain = 0
KOD1 150336Z 11004KT 28/20 A3007 RMK A01 T02770197  RH  062%=      5-min Rain = 0
KOD1 150337Z 10005KT 28/20 A3007 RMK A01 T02770197  RH  062%=      5-min Rain = 0
KOD1 150338Z 10005KT 28/20 A3007 RMK A01 T02760197  RH  062%=      5-min Rain = 0
KOD1 150339Z 10005KT 28/20 A3007 RMK A01 T02750197  RH  062%=      5-min Rain = 0
KOD1 150340Z 10005KT 27/20 A3007 RMK A01 T02740197  RH  063%=      5-min Rain = 0
KOD1 150341Z 10005KT 27/20 A3007 RMK A01 T02740197  RH  063%=      5-min Rain = 0
KOD1 150342Z 10005KT 27/20 A3007 RMK A01 T02740197  RH  063%=      5-min Rain = 0
KOD1 150343Z 10005KT 27/20 A3007 RMK A01 T02730198  RH  063%=      5-min Rain = 0
KOD1 150344Z 10005KT 27/20 A3007 RMK A01 T02730198  RH  063%=      5-min Rain = 0
KOD1 150345Z 10005KT 27/20 A3007 RMK A01 T02730197  RH  064%=      5-min Rain = 0
KOD1 150346Z 10005KT 27/20 A3007 RMK A01 T02730198  RH  064%=      5-min Rain = 0
KOD1 150347Z 10005KT 27/20 A3007 RMK A01 T02720198  RH  064%=      5-min Rain = 0
KOD1 150348Z 10005KT 27/20 A3007 RMK A01 T02720198  RH  064%=      5-min Rain = 0
KOD1 150349Z 10005KT 27/20 A3007 RMK A01 T02710198  RH  064%=      5-min Rain = 0
KOD1 150350Z 10005KT 27/20 A3007 RMK A01 T02710198  RH  064%=      5-min Rain = 0
KOD1 150351Z 10005KT 27/20 A3007 RMK A01 T02710198  RH  064%=      5-min Rain = 0
KOD1 150352Z 10005KT 27/20 A3007 RMK A01 T02710198  RH  064%=      5-min Rain = 0
KOD1 150353Z 10005KT 27/20 A3007 RMK A01 T02710198  RH  064%=      5-min Rain = 0
KOD1 150354Z 10005KT 27/20 A3007 RMK A01 T02710198  RH  064%=      5-min Rain = 0
KOD1 150355Z 10005KT 27/20 A3007 RMK A01 T02710198  RH  064%=      5-min Rain = 0
KOD1 150356Z 10005KT 27/20 A3007 RMK A01 T02710198  RH  064%=      5-min Rain = 0
KOD1 150357Z 09005KT 27/20 A3007 RMK A01 T02710198  RH  064%=      5-min Rain = 0
KOD1 150358Z 09005KT 27/20 A3007 RMK A01 T02710198  RH  064%=      5-min Rain = 0
KOD1 150359Z 09005KT 27/20 A3007 RMK A01 T02710198  RH  064%=      5-min Rain = 0
KOD1 150400Z 09005KT 27/20 A3007 RMK A01 T02710198  RH  064%=      5-min Rain = 0
KOD1 150401Z 09005KT 27/20 A3007 RMK A01 T02700198  RH  065%=      5-min Rain = 0
KOD1 150402Z 09005KT 27/20 A3007 RMK A01 T02700198  RH  065%=      5-min Rain = 0
KOD1 150403Z 09005KT 27/20 A3007 RMK A01 T02700198  RH  065%=      5-min Rain = 0
KOD1 150404Z 09005KT 27/20 A3007 RMK A01 T02700198  RH  065%=      5-min Rain = 0
KOD1 150405Z 09005KT 27/20 A3007 RMK A01 T02700198  RH  065%=      5-min Rain = 0
KOD1 150406Z 09005KT 27/20 A3007 RMK A01 T02700198  RH  065%=      5-min Rain = 0
KOD1 150407Z 09005KT 27/20 A3007 RMK A01 T02700198  RH  065%=      5-min Rain = 0
KOD1 150408Z 10005KT 27/20 A3007 RMK A01 T02700198  RH  065%=      5-min Rain = 0
KOD1 150409Z 10005KT 27/20 A3007 RMK A01 T02690198  RH  065%=      5-min Rain = 0
KOD1 150410Z 10005KT 27/20 A3008 RMK A01 T02690198  RH  065%=      5-min Rain = 0
KOD1 150411Z 09005KT 27/20 A3008 RMK A01 T02690198  RH  065%=      5-min Rain = 0
KOD1 150412Z 09006KT 27/20 A3008 RMK A01 T02690198  RH  065%=      5-min Rain = 0
KOD1 150413Z 09005KT 27/20 A3008 RMK A01 T02690198  RH  065%=      5-min Rain = 0
KOD1 150414Z 09005KT 27/20 A3008 RMK A01 T02690198  RH  065%=      5-min Rain = 0
KOD1 150415Z 09005KT 27/20 A3008 RMK A01 T02680198  RH  065%=      5-min Rain = 0
KOD1 150416Z 09005KT 27/20 A3008 RMK A01 T02680197  RH  065%=      5-min Rain = 0
KOD1 150417Z 09005KT 27/20 A3008 RMK A01 T02680198  RH  066%=      5-min Rain = 0
KOD1 150418Z 09005KT 27/20 A3008 RMK A01 T02680198  RH  065%=      5-min Rain = 0
KOD1 150419Z 09005KT 27/20 A3008 RMK A01 T02690198  RH  065%=      5-min Rain = 0
KOD1 150420Z 09005KT 27/20 A3008 RMK A01 T02690198  RH  065%=      5-min Rain = 0
KOD1 150421Z 09005KT 27/20 A3008 RMK A01 T02690198  RH  065%=      5-min Rain = 0
KOD1 150422Z 09005KT 27/20 A3008 RMK A01 T02690198  RH  065%=      5-min Rain = 0
KOD1 150423Z 08006KT 27/20 A3008 RMK A01 T02690198  RH  065%=      5-min Rain = 0
KOD1 150424Z 08006KT 27/20 A3008 RMK A01 T02690197  RH  065%=      5-min Rain = 0
KOD1 150425Z 08006KT 27/20 A3008 RMK A01 T02690196  RH  064%=      5-min Rain = 0
KOD1 150426Z 08006KT 27/20 A3008 RMK A01 T02690196  RH  064%=      5-min Rain = 0
KOD1 150427Z 09006KT 27/20 A3008 RMK A01 T02700196  RH  064%=      5-min Rain = 0
KOD1 150428Z 09006KT 27/20 A3008 RMK A01 T02710195  RH  063%=      5-min Rain = 0
KOD1 150429Z 09005KT 27/20 A3008 RMK A01 T02720195  RH  063%=      5-min Rain = 0
KOD1 150430Z 10005KT 27/20 A3008 RMK A01 T02730196  RH  063%=      5-min Rain = 0
KOD1 150431Z 09005KT 27/20 A3008 RMK A01 T02730196  RH  063%=      5-min Rain = 0
KOD1 150432Z 10005KT 27/20 A3008 RMK A01 T02730196  RH  063%=      5-min Rain = 0
KOD1 150433Z 10006KT 27/20 A3008 RMK A01 T02720195  RH  063%=      5-min Rain = 0
KOD1 150434Z 10006KT 27/20 A3008 RMK A01 T02720196  RH  063%=      5-min Rain = 0
KOD1 150435Z 10006KT 27/20 A3008 RMK A01 T02720196  RH  063%=      5-min Rain = 0
KOD1 150436Z 10006KT 27/20 A3008 RMK A01 T02710196  RH  064%=      5-min Rain = 0
KOD1 150437Z 10006KT 27/20 A3008 RMK A01 T02700197  RH  064%=      5-min Rain = 0
KOD1 150438Z 10006KT 27/20 A3008 RMK A01 T02700196  RH  064%=      5-min Rain = 0
KOD1 150439Z 11006KT 27/20 A3008 RMK A01 T02690197  RH  065%=      5-min Rain = 0
KOD1 150440Z 11006KT 27/20 A3008 RMK A01 T02690196  RH  065%=      5-min Rain = 0
KOD1 150441Z 11006KT 27/20 A3008 RMK A01 T02690196  RH  064%=      5-min Rain = 0
KOD1 150442Z 11007KT 27/20 A3008 RMK A01 T02700195  RH  063%=      5-min Rain = 0
KOD1 150443Z 11006KT 27/20 A3008 RMK A01 T02710195  RH  063%=      5-min Rain = 0
KOD1 150444Z 12007KT 27/20 A3008 RMK A01 T02720195  RH  063%=      5-min Rain = 0
KOD1 150445Z 12007KT 27/19 A3008 RMK A01 T02730194  RH  062%=      5-min Rain = 0
KOD1 150446Z 11006KT 27/19 A3008 RMK A01 T02740194  RH  062%=      5-min Rain = 0
KOD1 150447Z 12006KT 28/20 A3008 RMK A01 T02750195  RH  062%=      5-min Rain = 0
KOD1 150448Z 12006KT 28/20 A3008 RMK A01 T02750195  RH  062%=      5-min Rain = 0
KOD1 150449Z 11006KT 28/20 A3008 RMK A01 T02750195  RH  062%=      5-min Rain = 0
KOD1 150450Z 11006KT 28/19 A3008 RMK A01 T02750194  RH  062%=      5-min Rain = 0
KOD1 150451Z 11006KT 28/19 A3008 RMK A01 T02750194  RH  061%=      5-min Rain = 0
KOD1 150452Z 11006KT 28/20 A3008 RMK A01 T02750195  RH  062%=      5-min Rain = 0
KOD1 150453Z 11006KT 28/19 A3008 RMK A01 T02750194  RH  062%=      5-min Rain = 0
KOD1 150454Z 11007KT 28/20 A3008 RMK A01 T02750195  RH  062%=      5-min Rain = 0
KOD1 150455Z 10006KT 27/20 A3008 RMK A01 T02740195  RH  062%=      5-min Rain = 0
KOD1 150456Z 10006KT 27/20 A3008 RMK A01 T02730195  RH  063%=      5-min Rain = 0
KOD1 150457Z 10007KT 27/20 A3008 RMK A01 T02720196  RH  063%=      5-min Rain = 0
KOD1 150458Z 10006KT 27/20 A3009 RMK A01 T02720196  RH  063%=      5-min Rain = 0
KOD1 150459Z 10006KT 27/20 A3009 RMK A01 T02710196  RH  063%=      5-min Rain = 0

Page generated in 0.125 seconds.